<?xml version="1.0" encoding="UTF-8" standalone="no" ?>
<gpx xmlns="http://www.topografix.com/GPX/1/1" xmlns:xsi="http://www.w3.org/2001/XMLSchema-instance" xsi:schemaLocation="http://www.topografix.com/GPX/1/1 http://www.topografix.com/GPX/1/1/gpx.xsd" version="1.1" creator="VisuGPX - https://www.visugpx.com">
  <metadata>
    <name>64 - PEDESTRE - Vallon de Peyrelue - Un aller-retour</name>
    <desc><![CDATA[Soleil et vent fort]]></desc>
  </metadata>
  <wpt lat="42.81511" lon="-0.39679">
    <ele>1785.7612304688</ele>
    <name><![CDATA[Totem balisage plaquette HS]]></name>
    <desc><![CDATA[27-AOU-15 10:19:01]]></desc>
    <cmt><![CDATA[27-AOU-15 10:19:01]]></cmt>
  </wpt>
  <trk>
    <name><![CDATA[ACTIVE LOG 001]]></name>
    <trkseg>
      <trkpt lat="42.8185" lon="-0.39879">
        <ele>1587.2739257812</ele>
        <time>2015-08-27T07:51:25Z</time>
      </trkpt>
      <trkpt lat="42.81849" lon="-0.39879">
        <ele>1587.2739257812</ele>
        <time>2015-08-27T07:51:27Z</time>
      </trkpt>
      <trkpt lat="42.8185" lon="-0.39878">
        <ele>1587.7546386719</ele>
        <time>2015-08-27T07:51:37Z</time>
      </trkpt>
      <trkpt lat="42.81855" lon="-0.39877">
        <ele>1587.2739257812</ele>
        <time>2015-08-27T07:51:56Z</time>
      </trkpt>
      <trkpt lat="42.81858" lon="-0.3988">
        <ele>1587.7546386719</ele>
        <time>2015-08-27T07:52:14Z</time>
      </trkpt>
      <trkpt lat="42.8186" lon="-0.3988">
        <ele>1586.7932128906</ele>
        <time>2015-08-27T07:52:26Z</time>
      </trkpt>
      <trkpt lat="42.8186" lon="-0.3988">
        <ele>1587.2739257812</ele>
        <time>2015-08-27T07:52:27Z</time>
      </trkpt>
      <trkpt lat="42.81877" lon="-0.39852">
        <ele>1584.8708496094</ele>
        <time>2015-08-27T07:52:53Z</time>
      </trkpt>
      <trkpt lat="42.81884" lon="-0.39839">
        <ele>1582.9479980469</ele>
        <time>2015-08-27T07:53:14Z</time>
      </trkpt>
      <trkpt lat="42.81886" lon="-0.39839">
        <ele>1583.4287109375</ele>
        <time>2015-08-27T07:53:32Z</time>
      </trkpt>
      <trkpt lat="42.81893" lon="-0.39823">
        <ele>1586.7932128906</ele>
        <time>2015-08-27T07:53:49Z</time>
      </trkpt>
      <trkpt lat="42.81898" lon="-0.3981">
        <ele>1588.7160644531</ele>
        <time>2015-08-27T07:54:01Z</time>
      </trkpt>
      <trkpt lat="42.81908" lon="-0.39793">
        <ele>1589.1965332031</ele>
        <time>2015-08-27T07:54:17Z</time>
      </trkpt>
      <trkpt lat="42.81917" lon="-0.39771">
        <ele>1592.5612792969</ele>
        <time>2015-08-27T07:54:36Z</time>
      </trkpt>
      <trkpt lat="42.81917" lon="-0.39764">
        <ele>1594.4836425781</ele>
        <time>2015-08-27T07:54:43Z</time>
      </trkpt>
      <trkpt lat="42.8192" lon="-0.39754">
        <ele>1594.9643554688</ele>
        <time>2015-08-27T07:54:51Z</time>
      </trkpt>
      <trkpt lat="42.81924" lon="-0.39739">
        <ele>1596.8872070312</ele>
        <time>2015-08-27T07:55:06Z</time>
      </trkpt>
      <trkpt lat="42.81928" lon="-0.39721">
        <ele>1598.3291015625</ele>
        <time>2015-08-27T07:55:22Z</time>
      </trkpt>
      <trkpt lat="42.81935" lon="-0.39704">
        <ele>1601.2131347656</ele>
        <time>2015-08-27T07:55:38Z</time>
      </trkpt>
      <trkpt lat="42.81936" lon="-0.39696">
        <ele>1603.6164550781</ele>
        <time>2015-08-27T07:55:49Z</time>
      </trkpt>
      <trkpt lat="42.81936" lon="-0.39684">
        <ele>1604.5776367188</ele>
        <time>2015-08-27T07:56:01Z</time>
      </trkpt>
      <trkpt lat="42.81943" lon="-0.39666">
        <ele>1606.01953125</ele>
        <time>2015-08-27T07:56:18Z</time>
      </trkpt>
      <trkpt lat="42.81948" lon="-0.3965">
        <ele>1607.4616699219</ele>
        <time>2015-08-27T07:56:35Z</time>
      </trkpt>
      <trkpt lat="42.8195" lon="-0.39639">
        <ele>1609.8647460938</ele>
        <time>2015-08-27T07:56:45Z</time>
      </trkpt>
      <trkpt lat="42.81951" lon="-0.39635">
        <ele>1611.7875976562</ele>
        <time>2015-08-27T07:56:49Z</time>
      </trkpt>
      <trkpt lat="42.81954" lon="-0.39621">
        <ele>1612.7490234375</ele>
        <time>2015-08-27T07:57:05Z</time>
      </trkpt>
      <trkpt lat="42.81953" lon="-0.39606">
        <ele>1615.15234375</ele>
        <time>2015-08-27T07:57:21Z</time>
      </trkpt>
      <trkpt lat="42.81956" lon="-0.39596">
        <ele>1616.5942382812</ele>
        <time>2015-08-27T07:57:36Z</time>
      </trkpt>
      <trkpt lat="42.81961" lon="-0.39585">
        <ele>1619.4782714844</ele>
        <time>2015-08-27T07:57:51Z</time>
      </trkpt>
      <trkpt lat="42.81963" lon="-0.39573">
        <ele>1622.3620605469</ele>
        <time>2015-08-27T07:58:05Z</time>
      </trkpt>
      <trkpt lat="42.81965" lon="-0.3956">
        <ele>1623.3234863281</ele>
        <time>2015-08-27T07:58:21Z</time>
      </trkpt>
      <trkpt lat="42.81966" lon="-0.39546">
        <ele>1625.7265625</ele>
        <time>2015-08-27T07:58:37Z</time>
      </trkpt>
      <trkpt lat="42.81968" lon="-0.39525">
        <ele>1628.1301269531</ele>
        <time>2015-08-27T07:58:56Z</time>
      </trkpt>
      <trkpt lat="42.81966" lon="-0.39513">
        <ele>1630.5334472656</ele>
        <time>2015-08-27T07:59:12Z</time>
      </trkpt>
      <trkpt lat="42.81954" lon="-0.39524">
        <ele>1633.4172363281</ele>
        <time>2015-08-27T07:59:30Z</time>
      </trkpt>
      <trkpt lat="42.81942" lon="-0.39532">
        <ele>1635.8205566406</ele>
        <time>2015-08-27T07:59:47Z</time>
      </trkpt>
      <trkpt lat="42.81944" lon="-0.3952">
        <ele>1637.2624511719</ele>
        <time>2015-08-27T08:00:00Z</time>
      </trkpt>
      <trkpt lat="42.81944" lon="-0.39519">
        <ele>1637.2624511719</ele>
        <time>2015-08-27T08:00:01Z</time>
      </trkpt>
      <trkpt lat="42.81943" lon="-0.39516">
        <ele>1637.7431640625</ele>
        <time>2015-08-27T08:00:04Z</time>
      </trkpt>
      <trkpt lat="42.81936" lon="-0.39523">
        <ele>1640.626953125</ele>
        <time>2015-08-27T08:00:13Z</time>
      </trkpt>
      <trkpt lat="42.81936" lon="-0.39524">
        <ele>1640.626953125</ele>
        <time>2015-08-27T08:00:14Z</time>
      </trkpt>
      <trkpt lat="42.81928" lon="-0.39531">
        <ele>1643.9916992188</ele>
        <time>2015-08-27T08:00:27Z</time>
      </trkpt>
      <trkpt lat="42.81918" lon="-0.39537">
        <ele>1644.4724121094</ele>
        <time>2015-08-27T08:00:42Z</time>
      </trkpt>
      <trkpt lat="42.81908" lon="-0.39544">
        <ele>1647.3564453125</ele>
        <time>2015-08-27T08:00:58Z</time>
      </trkpt>
      <trkpt lat="42.81901" lon="-0.39545">
        <ele>1650.2404785156</ele>
        <time>2015-08-27T08:01:11Z</time>
      </trkpt>
      <trkpt lat="42.81905" lon="-0.39532">
        <ele>1652.6435546875</ele>
        <time>2015-08-27T08:01:26Z</time>
      </trkpt>
      <trkpt lat="42.81908" lon="-0.39522">
        <ele>1653.6049804688</ele>
        <time>2015-08-27T08:01:40Z</time>
      </trkpt>
      <trkpt lat="42.81912" lon="-0.39507">
        <ele>1656.0080566406</ele>
        <time>2015-08-27T08:01:56Z</time>
      </trkpt>
      <trkpt lat="42.81912" lon="-0.39495">
        <ele>1658.8920898438</ele>
        <time>2015-08-27T08:02:11Z</time>
      </trkpt>
      <trkpt lat="42.81905" lon="-0.39501">
        <ele>1661.2956542969</ele>
        <time>2015-08-27T08:02:24Z</time>
      </trkpt>
      <trkpt lat="42.81896" lon="-0.3951">
        <ele>1664.1794433594</ele>
        <time>2015-08-27T08:02:40Z</time>
      </trkpt>
      <trkpt lat="42.81884" lon="-0.39516">
        <ele>1666.1020507812</ele>
        <time>2015-08-27T08:02:57Z</time>
      </trkpt>
      <trkpt lat="42.81883" lon="-0.39517">
        <ele>1667.0634765625</ele>
        <time>2015-08-27T08:02:59Z</time>
      </trkpt>
      <trkpt lat="42.81876" lon="-0.39526">
        <ele>1668.9860839844</ele>
        <time>2015-08-27T08:03:15Z</time>
      </trkpt>
      <trkpt lat="42.81878" lon="-0.39517">
        <ele>1669.947265625</ele>
        <time>2015-08-27T08:03:29Z</time>
      </trkpt>
      <trkpt lat="42.81882" lon="-0.39501">
        <ele>1672.3505859375</ele>
        <time>2015-08-27T08:03:45Z</time>
      </trkpt>
      <trkpt lat="42.81884" lon="-0.39486">
        <ele>1674.75390625</ele>
        <time>2015-08-27T08:04:02Z</time>
      </trkpt>
      <trkpt lat="42.81886" lon="-0.39474">
        <ele>1678.1186523438</ele>
        <time>2015-08-27T08:04:15Z</time>
      </trkpt>
      <trkpt lat="42.81886" lon="-0.39464">
        <ele>1679.560546875</ele>
        <time>2015-08-27T08:04:27Z</time>
      </trkpt>
      <trkpt lat="42.81883" lon="-0.39461">
        <ele>1681.9638671875</ele>
        <time>2015-08-27T08:04:41Z</time>
      </trkpt>
      <trkpt lat="42.81879" lon="-0.39457">
        <ele>1683.8864746094</ele>
        <time>2015-08-27T08:04:56Z</time>
      </trkpt>
      <trkpt lat="42.81875" lon="-0.39451">
        <ele>1686.7702636719</ele>
        <time>2015-08-27T08:05:10Z</time>
      </trkpt>
      <trkpt lat="42.81872" lon="-0.39462">
        <ele>1689.654296875</ele>
        <time>2015-08-27T08:05:25Z</time>
      </trkpt>
      <trkpt lat="42.81867" lon="-0.39476">
        <ele>1691.5769042969</ele>
        <time>2015-08-27T08:05:42Z</time>
      </trkpt>
      <trkpt lat="42.81864" lon="-0.39473">
        <ele>1693.98046875</ele>
        <time>2015-08-27T08:05:56Z</time>
      </trkpt>
      <trkpt lat="42.81863" lon="-0.3946">
        <ele>1695.4223632812</ele>
        <time>2015-08-27T08:06:10Z</time>
      </trkpt>
      <trkpt lat="42.81859" lon="-0.39465">
        <ele>1697.3449707031</ele>
        <time>2015-08-27T08:06:21Z</time>
      </trkpt>
      <trkpt lat="42.81852" lon="-0.39468">
        <ele>1699.7482910156</ele>
        <time>2015-08-27T08:06:38Z</time>
      </trkpt>
      <trkpt lat="42.81853" lon="-0.39465">
        <ele>1701.1901855469</ele>
        <time>2015-08-27T08:06:41Z</time>
      </trkpt>
      <trkpt lat="42.81853" lon="-0.39451">
        <ele>1702.1513671875</ele>
        <time>2015-08-27T08:06:58Z</time>
      </trkpt>
      <trkpt lat="42.81848" lon="-0.39447">
        <ele>1703.5935058594</ele>
        <time>2015-08-27T08:07:08Z</time>
      </trkpt>
      <trkpt lat="42.81846" lon="-0.39445">
        <ele>1704.5546875</ele>
        <time>2015-08-27T08:07:11Z</time>
      </trkpt>
      <trkpt lat="42.81843" lon="-0.3945">
        <ele>1707.4387207031</ele>
        <time>2015-08-27T08:07:22Z</time>
      </trkpt>
      <trkpt lat="42.81843" lon="-0.39455">
        <ele>1708.880859375</ele>
        <time>2015-08-27T08:07:28Z</time>
      </trkpt>
      <trkpt lat="42.81838" lon="-0.39475">
        <ele>1711.7648925781</ele>
        <time>2015-08-27T08:07:47Z</time>
      </trkpt>
      <trkpt lat="42.8184" lon="-0.39489">
        <ele>1712.2453613281</ele>
        <time>2015-08-27T08:08:01Z</time>
      </trkpt>
      <trkpt lat="42.81837" lon="-0.39504">
        <ele>1712.7260742188</ele>
        <time>2015-08-27T08:08:15Z</time>
      </trkpt>
      <trkpt lat="42.81827" lon="-0.39514">
        <ele>1714.16796875</ele>
        <time>2015-08-27T08:08:32Z</time>
      </trkpt>
      <trkpt lat="42.81817" lon="-0.39522">
        <ele>1718.0131835938</ele>
        <time>2015-08-27T08:08:49Z</time>
      </trkpt>
      <trkpt lat="42.81816" lon="-0.39522">
        <ele>1718.0131835938</ele>
        <time>2015-08-27T08:08:50Z</time>
      </trkpt>
      <trkpt lat="42.81814" lon="-0.39524">
        <ele>1718.4938964844</ele>
        <time>2015-08-27T08:08:53Z</time>
      </trkpt>
      <trkpt lat="42.81801" lon="-0.39535">
        <ele>1720.4165039062</ele>
        <time>2015-08-27T08:09:13Z</time>
      </trkpt>
      <trkpt lat="42.81803" lon="-0.39531">
        <ele>1720.8972167969</ele>
        <time>2015-08-27T08:09:17Z</time>
      </trkpt>
      <trkpt lat="42.81807" lon="-0.39515">
        <ele>1723.7810058594</ele>
        <time>2015-08-27T08:09:35Z</time>
      </trkpt>
      <trkpt lat="42.81798" lon="-0.39524">
        <ele>1725.2231445312</ele>
        <time>2015-08-27T08:09:50Z</time>
      </trkpt>
      <trkpt lat="42.81797" lon="-0.39526">
        <ele>1725.7038574219</ele>
        <time>2015-08-27T08:09:52Z</time>
      </trkpt>
      <trkpt lat="42.81786" lon="-0.39539">
        <ele>1728.1071777344</ele>
        <time>2015-08-27T08:10:10Z</time>
      </trkpt>
      <trkpt lat="42.81782" lon="-0.39545">
        <ele>1730.5104980469</ele>
        <time>2015-08-27T08:10:20Z</time>
      </trkpt>
      <trkpt lat="42.81778" lon="-0.39554">
        <ele>1732.9135742188</ele>
        <time>2015-08-27T08:10:30Z</time>
      </trkpt>
      <trkpt lat="42.81771" lon="-0.39566">
        <ele>1736.2783203125</ele>
        <time>2015-08-27T08:10:44Z</time>
      </trkpt>
      <trkpt lat="42.81764" lon="-0.39576">
        <ele>1736.7587890625</ele>
        <time>2015-08-27T08:10:58Z</time>
      </trkpt>
      <trkpt lat="42.81763" lon="-0.39572">
        <ele>1738.2009277344</ele>
        <time>2015-08-27T08:11:10Z</time>
      </trkpt>
      <trkpt lat="42.81763" lon="-0.39568">
        <ele>1740.1237792969</ele>
        <time>2015-08-27T08:11:14Z</time>
      </trkpt>
      <trkpt lat="42.81762" lon="-0.39563">
        <ele>1740.1237792969</ele>
        <time>2015-08-27T08:11:19Z</time>
      </trkpt>
      <trkpt lat="42.81761" lon="-0.3954">
        <ele>1743.0075683594</ele>
        <time>2015-08-27T08:11:36Z</time>
      </trkpt>
      <trkpt lat="42.81757" lon="-0.39536">
        <ele>1743.9689941406</ele>
        <time>2015-08-27T08:11:51Z</time>
      </trkpt>
      <trkpt lat="42.81745" lon="-0.39546">
        <ele>1744.9301757812</ele>
        <time>2015-08-27T08:12:09Z</time>
      </trkpt>
      <trkpt lat="42.81741" lon="-0.39548">
        <ele>1746.8527832031</ele>
        <time>2015-08-27T08:12:14Z</time>
      </trkpt>
      <trkpt lat="42.81738" lon="-0.3955">
        <ele>1749.2561035156</ele>
        <time>2015-08-27T08:12:18Z</time>
      </trkpt>
      <trkpt lat="42.81727" lon="-0.39552">
        <ele>1749.7368164062</ele>
        <time>2015-08-27T08:12:30Z</time>
      </trkpt>
      <trkpt lat="42.81719" lon="-0.39555">
        <ele>1753.58203125</ele>
        <time>2015-08-27T08:12:42Z</time>
      </trkpt>
      <trkpt lat="42.81712" lon="-0.39557">
        <ele>1755.9851074219</ele>
        <time>2015-08-27T08:12:57Z</time>
      </trkpt>
      <trkpt lat="42.81703" lon="-0.39569">
        <ele>1755.9851074219</ele>
        <time>2015-08-27T08:13:15Z</time>
      </trkpt>
      <trkpt lat="42.81691" lon="-0.39586">
        <ele>1757.908203125</ele>
        <time>2015-08-27T08:13:34Z</time>
      </trkpt>
      <trkpt lat="42.81681" lon="-0.39598">
        <ele>1760.3112792969</ele>
        <time>2015-08-27T08:13:54Z</time>
      </trkpt>
      <trkpt lat="42.81676" lon="-0.39607">
        <ele>1761.7534179688</ele>
        <time>2015-08-27T08:14:09Z</time>
      </trkpt>
      <trkpt lat="42.81677" lon="-0.39618">
        <ele>1763.1953125</ele>
        <time>2015-08-27T08:14:25Z</time>
      </trkpt>
      <trkpt lat="42.81675" lon="-0.39622">
        <ele>1763.1953125</ele>
        <time>2015-08-27T08:14:40Z</time>
      </trkpt>
      <trkpt lat="42.81669" lon="-0.39627">
        <ele>1764.6372070312</ele>
        <time>2015-08-27T08:14:47Z</time>
      </trkpt>
      <trkpt lat="42.81663" lon="-0.39627">
        <ele>1767.5209960938</ele>
        <time>2015-08-27T08:14:53Z</time>
      </trkpt>
      <trkpt lat="42.81663" lon="-0.39626">
        <ele>1767.0405273438</ele>
        <time>2015-08-27T08:14:54Z</time>
      </trkpt>
      <trkpt lat="42.81662" lon="-0.39624">
        <ele>1767.5209960938</ele>
        <time>2015-08-27T08:14:56Z</time>
      </trkpt>
      <trkpt lat="42.81661" lon="-0.39611">
        <ele>1770.4050292969</ele>
        <time>2015-08-27T08:15:11Z</time>
      </trkpt>
      <trkpt lat="42.81658" lon="-0.39613">
        <ele>1773.2893066406</ele>
        <time>2015-08-27T08:15:18Z</time>
      </trkpt>
      <trkpt lat="42.81657" lon="-0.39614">
        <ele>1772.80859375</ele>
        <time>2015-08-27T08:15:19Z</time>
      </trkpt>
      <trkpt lat="42.81653" lon="-0.39617">
        <ele>1773.7697753906</ele>
        <time>2015-08-27T08:15:25Z</time>
      </trkpt>
      <trkpt lat="42.81649" lon="-0.39635">
        <ele>1772.80859375</ele>
        <time>2015-08-27T08:15:39Z</time>
      </trkpt>
      <trkpt lat="42.81647" lon="-0.39637">
        <ele>1773.2893066406</ele>
        <time>2015-08-27T08:15:42Z</time>
      </trkpt>
      <trkpt lat="42.81627" lon="-0.39635">
        <ele>1776.1730957031</ele>
        <time>2015-08-27T08:16:01Z</time>
      </trkpt>
      <trkpt lat="42.81622" lon="-0.39635">
        <ele>1776.1730957031</ele>
        <time>2015-08-27T08:16:05Z</time>
      </trkpt>
      <trkpt lat="42.81608" lon="-0.39639">
        <ele>1775.6923828125</ele>
        <time>2015-08-27T08:16:24Z</time>
      </trkpt>
      <trkpt lat="42.81606" lon="-0.39642">
        <ele>1775.2116699219</ele>
        <time>2015-08-27T08:16:28Z</time>
      </trkpt>
      <trkpt lat="42.816" lon="-0.3965">
        <ele>1777.1345214844</ele>
        <time>2015-08-27T08:16:36Z</time>
      </trkpt>
      <trkpt lat="42.81594" lon="-0.39654">
        <ele>1777.1345214844</ele>
        <time>2015-08-27T08:16:44Z</time>
      </trkpt>
      <trkpt lat="42.81585" lon="-0.39658">
        <ele>1775.6923828125</ele>
        <time>2015-08-27T08:16:59Z</time>
      </trkpt>
      <trkpt lat="42.81578" lon="-0.39665">
        <ele>1778.5764160156</ele>
        <time>2015-08-27T08:17:15Z</time>
      </trkpt>
      <trkpt lat="42.81574" lon="-0.39673">
        <ele>1779.0568847656</ele>
        <time>2015-08-27T08:17:25Z</time>
      </trkpt>
      <trkpt lat="42.81571" lon="-0.39675">
        <ele>1779.0568847656</ele>
        <time>2015-08-27T08:17:29Z</time>
      </trkpt>
      <trkpt lat="42.81557" lon="-0.39678">
        <ele>1781.4602050781</ele>
        <time>2015-08-27T08:17:48Z</time>
      </trkpt>
      <trkpt lat="42.81556" lon="-0.39678">
        <ele>1782.4216308594</ele>
        <time>2015-08-27T08:17:50Z</time>
      </trkpt>
      <trkpt lat="42.81546" lon="-0.39677">
        <ele>1781.4602050781</ele>
        <time>2015-08-27T08:18:05Z</time>
      </trkpt>
      <trkpt lat="42.81532" lon="-0.39674">
        <ele>1784.3442382812</ele>
        <time>2015-08-27T08:18:21Z</time>
      </trkpt>
      <trkpt lat="42.81532" lon="-0.39674">
        <ele>1784.3442382812</ele>
        <time>2015-08-27T08:18:22Z</time>
      </trkpt>
      <trkpt lat="42.81521" lon="-0.39677">
        <ele>1783.8635253906</ele>
        <time>2015-08-27T08:18:42Z</time>
      </trkpt>
      <trkpt lat="42.81512" lon="-0.39679">
        <ele>1785.3054199219</ele>
        <time>2015-08-27T08:18:56Z</time>
      </trkpt>
      <trkpt lat="42.8151" lon="-0.39681">
        <ele>1784.8249511719</ele>
        <time>2015-08-27T08:19:08Z</time>
      </trkpt>
      <trkpt lat="42.81495" lon="-0.39695">
        <ele>1784.8249511719</ele>
        <time>2015-08-27T08:19:25Z</time>
      </trkpt>
      <trkpt lat="42.81494" lon="-0.39696">
        <ele>1785.3054199219</ele>
        <time>2015-08-27T08:19:27Z</time>
      </trkpt>
      <trkpt lat="42.81475" lon="-0.39705">
        <ele>1783.8635253906</ele>
        <time>2015-08-27T08:19:45Z</time>
      </trkpt>
      <trkpt lat="42.81463" lon="-0.39709">
        <ele>1785.3054199219</ele>
        <time>2015-08-27T08:20:01Z</time>
      </trkpt>
      <trkpt lat="42.81452" lon="-0.39712">
        <ele>1787.2280273438</ele>
        <time>2015-08-27T08:20:15Z</time>
      </trkpt>
      <trkpt lat="42.81447" lon="-0.39713">
        <ele>1785.3054199219</ele>
        <time>2015-08-27T08:20:21Z</time>
      </trkpt>
      <trkpt lat="42.81441" lon="-0.39714">
        <ele>1787.7087402344</ele>
        <time>2015-08-27T08:20:27Z</time>
      </trkpt>
      <trkpt lat="42.8144" lon="-0.39715">
        <ele>1787.7087402344</ele>
        <time>2015-08-27T08:20:29Z</time>
      </trkpt>
      <trkpt lat="42.81431" lon="-0.39729">
        <ele>1787.2280273438</ele>
        <time>2015-08-27T08:20:45Z</time>
      </trkpt>
      <trkpt lat="42.81414" lon="-0.39746">
        <ele>1787.7087402344</ele>
        <time>2015-08-27T08:21:05Z</time>
      </trkpt>
      <trkpt lat="42.81407" lon="-0.39751">
        <ele>1786.7473144531</ele>
        <time>2015-08-27T08:21:13Z</time>
      </trkpt>
      <trkpt lat="42.81405" lon="-0.39752">
        <ele>1788.1896972656</ele>
        <time>2015-08-27T08:21:15Z</time>
      </trkpt>
      <trkpt lat="42.81403" lon="-0.39753">
        <ele>1789.6315917969</ele>
        <time>2015-08-27T08:21:17Z</time>
      </trkpt>
      <trkpt lat="42.814" lon="-0.39753">
        <ele>1790.5927734375</ele>
        <time>2015-08-27T08:21:20Z</time>
      </trkpt>
      <trkpt lat="42.81393" lon="-0.39757">
        <ele>1791.5541992188</ele>
        <time>2015-08-27T08:21:35Z</time>
      </trkpt>
      <trkpt lat="42.81391" lon="-0.39757">
        <ele>1790.1123046875</ele>
        <time>2015-08-27T08:21:37Z</time>
      </trkpt>
      <trkpt lat="42.81389" lon="-0.39757">
        <ele>1792.515625</ele>
        <time>2015-08-27T08:21:39Z</time>
      </trkpt>
      <trkpt lat="42.81371" lon="-0.3976">
        <ele>1792.0349121094</ele>
        <time>2015-08-27T08:21:56Z</time>
      </trkpt>
      <trkpt lat="42.81369" lon="-0.39762">
        <ele>1789.6315917969</ele>
        <time>2015-08-27T08:22:14Z</time>
      </trkpt>
      <trkpt lat="42.81366" lon="-0.39763">
        <ele>1790.5927734375</ele>
        <time>2015-08-27T08:22:17Z</time>
      </trkpt>
      <trkpt lat="42.81357" lon="-0.39765">
        <ele>1792.99609375</ele>
        <time>2015-08-27T08:22:26Z</time>
      </trkpt>
      <trkpt lat="42.81355" lon="-0.39766">
        <ele>1791.0734863281</ele>
        <time>2015-08-27T08:22:28Z</time>
      </trkpt>
      <trkpt lat="42.81353" lon="-0.39766">
        <ele>1794.4379882812</ele>
        <time>2015-08-27T08:22:30Z</time>
      </trkpt>
      <trkpt lat="42.81339" lon="-0.39768">
        <ele>1795.3994140625</ele>
        <time>2015-08-27T08:22:43Z</time>
      </trkpt>
      <trkpt lat="42.81328" lon="-0.39766">
        <ele>1795.8801269531</ele>
        <time>2015-08-27T08:22:54Z</time>
      </trkpt>
      <trkpt lat="42.81312" lon="-0.39763">
        <ele>1796.3608398438</ele>
        <time>2015-08-27T08:23:11Z</time>
      </trkpt>
      <trkpt lat="42.81296" lon="-0.39761">
        <ele>1797.3220214844</ele>
        <time>2015-08-27T08:23:28Z</time>
      </trkpt>
      <trkpt lat="42.81275" lon="-0.39765">
        <ele>1799.2446289062</ele>
        <time>2015-08-27T08:23:47Z</time>
      </trkpt>
      <trkpt lat="42.81259" lon="-0.39765">
        <ele>1801.6479492188</ele>
        <time>2015-08-27T08:24:01Z</time>
      </trkpt>
      <trkpt lat="42.81245" lon="-0.39764">
        <ele>1802.6091308594</ele>
        <time>2015-08-27T08:24:15Z</time>
      </trkpt>
      <trkpt lat="42.81223" lon="-0.39771">
        <ele>1801.6479492188</ele>
        <time>2015-08-27T08:24:35Z</time>
      </trkpt>
      <trkpt lat="42.81209" lon="-0.39786">
        <ele>1805.0126953125</ele>
        <time>2015-08-27T08:24:53Z</time>
      </trkpt>
      <trkpt lat="42.812" lon="-0.39792">
        <ele>1802.1284179688</ele>
        <time>2015-08-27T08:25:03Z</time>
      </trkpt>
      <trkpt lat="42.81197" lon="-0.39796">
        <ele>1803.08984375</ele>
        <time>2015-08-27T08:25:08Z</time>
      </trkpt>
      <trkpt lat="42.81193" lon="-0.39798">
        <ele>1802.1284179688</ele>
        <time>2015-08-27T08:25:17Z</time>
      </trkpt>
      <trkpt lat="42.81186" lon="-0.39801">
        <ele>1805.9738769531</ele>
        <time>2015-08-27T08:25:26Z</time>
      </trkpt>
      <trkpt lat="42.81184" lon="-0.398">
        <ele>1805.4934082031</ele>
        <time>2015-08-27T08:25:33Z</time>
      </trkpt>
      <trkpt lat="42.81177" lon="-0.398">
        <ele>1802.1284179688</ele>
        <time>2015-08-27T08:25:40Z</time>
      </trkpt>
      <trkpt lat="42.81175" lon="-0.39802">
        <ele>1805.0126953125</ele>
        <time>2015-08-27T08:25:44Z</time>
      </trkpt>
      <trkpt lat="42.81167" lon="-0.39798">
        <ele>1805.4934082031</ele>
        <time>2015-08-27T08:25:54Z</time>
      </trkpt>
      <trkpt lat="42.81152" lon="-0.39793">
        <ele>1807.416015625</ele>
        <time>2015-08-27T08:26:10Z</time>
      </trkpt>
      <trkpt lat="42.8115" lon="-0.39793">
        <ele>1806.4545898438</ele>
        <time>2015-08-27T08:26:12Z</time>
      </trkpt>
      <trkpt lat="42.81148" lon="-0.39792">
        <ele>1808.3771972656</ele>
        <time>2015-08-27T08:26:14Z</time>
      </trkpt>
      <trkpt lat="42.81133" lon="-0.39791">
        <ele>1809.3386230469</ele>
        <time>2015-08-27T08:26:29Z</time>
      </trkpt>
      <trkpt lat="42.8112" lon="-0.3979">
        <ele>1810.2998046875</ele>
        <time>2015-08-27T08:26:45Z</time>
      </trkpt>
      <trkpt lat="42.81106" lon="-0.39785">
        <ele>1810.2998046875</ele>
        <time>2015-08-27T08:27:00Z</time>
      </trkpt>
      <trkpt lat="42.81097" lon="-0.39786">
        <ele>1809.8190917969</ele>
        <time>2015-08-27T08:27:11Z</time>
      </trkpt>
      <trkpt lat="42.8108" lon="-0.39792">
        <ele>1810.2998046875</ele>
        <time>2015-08-27T08:27:29Z</time>
      </trkpt>
      <trkpt lat="42.81075" lon="-0.39793">
        <ele>1810.7805175781</ele>
        <time>2015-08-27T08:27:34Z</time>
      </trkpt>
      <trkpt lat="42.81073" lon="-0.3979">
        <ele>1812.2224121094</ele>
        <time>2015-08-27T08:27:36Z</time>
      </trkpt>
      <trkpt lat="42.8107" lon="-0.39788">
        <ele>1811.2612304688</ele>
        <time>2015-08-27T08:27:39Z</time>
      </trkpt>
      <trkpt lat="42.81067" lon="-0.39786">
        <ele>1810.7805175781</ele>
        <time>2015-08-27T08:27:42Z</time>
      </trkpt>
      <trkpt lat="42.81066" lon="-0.39787">
        <ele>1809.3386230469</ele>
        <time>2015-08-27T08:27:44Z</time>
      </trkpt>
      <trkpt lat="42.81063" lon="-0.39788">
        <ele>1811.2612304688</ele>
        <time>2015-08-27T08:27:47Z</time>
      </trkpt>
      <trkpt lat="42.8106" lon="-0.39788">
        <ele>1812.2224121094</ele>
        <time>2015-08-27T08:27:50Z</time>
      </trkpt>
      <trkpt lat="42.81055" lon="-0.39786">
        <ele>1811.7419433594</ele>
        <time>2015-08-27T08:27:55Z</time>
      </trkpt>
      <trkpt lat="42.81049" lon="-0.39791">
        <ele>1811.2612304688</ele>
        <time>2015-08-27T08:28:01Z</time>
      </trkpt>
      <trkpt lat="42.81043" lon="-0.39793">
        <ele>1811.2612304688</ele>
        <time>2015-08-27T08:28:08Z</time>
      </trkpt>
      <trkpt lat="42.81039" lon="-0.39791">
        <ele>1813.1838378906</ele>
        <time>2015-08-27T08:28:11Z</time>
      </trkpt>
      <trkpt lat="42.81025" lon="-0.39785">
        <ele>1814.6257324219</ele>
        <time>2015-08-27T08:28:25Z</time>
      </trkpt>
      <trkpt lat="42.81012" lon="-0.39787">
        <ele>1815.5871582031</ele>
        <time>2015-08-27T08:28:38Z</time>
      </trkpt>
      <trkpt lat="42.81" lon="-0.39786">
        <ele>1813.6643066406</ele>
        <time>2015-08-27T08:28:49Z</time>
      </trkpt>
      <trkpt lat="42.80988" lon="-0.39788">
        <ele>1815.5871582031</ele>
        <time>2015-08-27T08:29:02Z</time>
      </trkpt>
      <trkpt lat="42.80986" lon="-0.39788">
        <ele>1815.5871582031</ele>
        <time>2015-08-27T08:29:04Z</time>
      </trkpt>
      <trkpt lat="42.80977" lon="-0.39791">
        <ele>1816.0676269531</ele>
        <time>2015-08-27T08:29:14Z</time>
      </trkpt>
      <trkpt lat="42.80972" lon="-0.3979">
        <ele>1816.5483398438</ele>
        <time>2015-08-27T08:29:18Z</time>
      </trkpt>
      <trkpt lat="42.80966" lon="-0.39793">
        <ele>1818.4709472656</ele>
        <time>2015-08-27T08:29:26Z</time>
      </trkpt>
      <trkpt lat="42.80962" lon="-0.39791">
        <ele>1816.5483398438</ele>
        <time>2015-08-27T08:29:30Z</time>
      </trkpt>
      <trkpt lat="42.8096" lon="-0.39791">
        <ele>1817.5095214844</ele>
        <time>2015-08-27T08:29:32Z</time>
      </trkpt>
      <trkpt lat="42.8095" lon="-0.39791">
        <ele>1817.0290527344</ele>
        <time>2015-08-27T08:29:41Z</time>
      </trkpt>
      <trkpt lat="42.80942" lon="-0.39794">
        <ele>1817.990234375</ele>
        <time>2015-08-27T08:29:49Z</time>
      </trkpt>
      <trkpt lat="42.8094" lon="-0.39793">
        <ele>1818.9516601562</ele>
        <time>2015-08-27T08:29:51Z</time>
      </trkpt>
      <trkpt lat="42.80924" lon="-0.39781">
        <ele>1817.5095214844</ele>
        <time>2015-08-27T08:30:06Z</time>
      </trkpt>
      <trkpt lat="42.80922" lon="-0.39781">
        <ele>1816.5483398438</ele>
        <time>2015-08-27T08:30:08Z</time>
      </trkpt>
      <trkpt lat="42.80919" lon="-0.39781">
        <ele>1818.4709472656</ele>
        <time>2015-08-27T08:30:10Z</time>
      </trkpt>
      <trkpt lat="42.80906" lon="-0.39782">
        <ele>1819.4323730469</ele>
        <time>2015-08-27T08:30:21Z</time>
      </trkpt>
      <trkpt lat="42.80886" lon="-0.39773">
        <ele>1820.8745117188</ele>
        <time>2015-08-27T08:30:40Z</time>
      </trkpt>
      <trkpt lat="42.80884" lon="-0.39771">
        <ele>1821.8356933594</ele>
        <time>2015-08-27T08:30:42Z</time>
      </trkpt>
      <trkpt lat="42.80873" lon="-0.3976">
        <ele>1822.31640625</ele>
        <time>2015-08-27T08:30:54Z</time>
      </trkpt>
      <trkpt lat="42.80868" lon="-0.39758">
        <ele>1822.31640625</ele>
        <time>2015-08-27T08:30:59Z</time>
      </trkpt>
      <trkpt lat="42.80863" lon="-0.39759">
        <ele>1822.7971191406</ele>
        <time>2015-08-27T08:31:04Z</time>
      </trkpt>
      <trkpt lat="42.80856" lon="-0.39757">
        <ele>1824.2390136719</ele>
        <time>2015-08-27T08:31:11Z</time>
      </trkpt>
      <trkpt lat="42.8085" lon="-0.39753">
        <ele>1822.31640625</ele>
        <time>2015-08-27T08:31:17Z</time>
      </trkpt>
      <trkpt lat="42.80846" lon="-0.39752">
        <ele>1822.7971191406</ele>
        <time>2015-08-27T08:31:21Z</time>
      </trkpt>
      <trkpt lat="42.80835" lon="-0.39749">
        <ele>1820.8745117188</ele>
        <time>2015-08-27T08:31:32Z</time>
      </trkpt>
      <trkpt lat="42.80831" lon="-0.39749">
        <ele>1824.2390136719</ele>
        <time>2015-08-27T08:31:36Z</time>
      </trkpt>
      <trkpt lat="42.80812" lon="-0.39756">
        <ele>1824.2390136719</ele>
        <time>2015-08-27T08:31:54Z</time>
      </trkpt>
      <trkpt lat="42.80807" lon="-0.39758">
        <ele>1824.2390136719</ele>
        <time>2015-08-27T08:31:58Z</time>
      </trkpt>
      <trkpt lat="42.80802" lon="-0.39759">
        <ele>1825.2001953125</ele>
        <time>2015-08-27T08:32:02Z</time>
      </trkpt>
      <trkpt lat="42.80782" lon="-0.39763">
        <ele>1824.7197265625</ele>
        <time>2015-08-27T08:32:20Z</time>
      </trkpt>
      <trkpt lat="42.8077" lon="-0.39763">
        <ele>1825.2001953125</ele>
        <time>2015-08-27T08:32:32Z</time>
      </trkpt>
      <trkpt lat="42.80754" lon="-0.39763">
        <ele>1826.1616210938</ele>
        <time>2015-08-27T08:32:47Z</time>
      </trkpt>
      <trkpt lat="42.80747" lon="-0.3976">
        <ele>1826.1616210938</ele>
        <time>2015-08-27T08:32:55Z</time>
      </trkpt>
      <trkpt lat="42.80744" lon="-0.3976">
        <ele>1825.2001953125</ele>
        <time>2015-08-27T08:32:58Z</time>
      </trkpt>
      <trkpt lat="42.80741" lon="-0.39761">
        <ele>1827.123046875</ele>
        <time>2015-08-27T08:33:01Z</time>
      </trkpt>
      <trkpt lat="42.80736" lon="-0.3976">
        <ele>1826.1616210938</ele>
        <time>2015-08-27T08:33:05Z</time>
      </trkpt>
      <trkpt lat="42.80726" lon="-0.39764">
        <ele>1827.603515625</ele>
        <time>2015-08-27T08:33:15Z</time>
      </trkpt>
      <trkpt lat="42.8072" lon="-0.39762">
        <ele>1826.1616210938</ele>
        <time>2015-08-27T08:33:30Z</time>
      </trkpt>
      <trkpt lat="42.80709" lon="-0.39751">
        <ele>1826.6423339844</ele>
        <time>2015-08-27T08:33:43Z</time>
      </trkpt>
      <trkpt lat="42.80696" lon="-0.39747">
        <ele>1830.0068359375</ele>
        <time>2015-08-27T08:33:55Z</time>
      </trkpt>
      <trkpt lat="42.80685" lon="-0.39739">
        <ele>1829.5261230469</ele>
        <time>2015-08-27T08:34:05Z</time>
      </trkpt>
      <trkpt lat="42.80682" lon="-0.39737">
        <ele>1830.0068359375</ele>
        <time>2015-08-27T08:34:08Z</time>
      </trkpt>
      <trkpt lat="42.80677" lon="-0.39732">
        <ele>1830.0068359375</ele>
        <time>2015-08-27T08:34:14Z</time>
      </trkpt>
      <trkpt lat="42.80672" lon="-0.39727">
        <ele>1830.9682617188</ele>
        <time>2015-08-27T08:34:22Z</time>
      </trkpt>
      <trkpt lat="42.80666" lon="-0.39723">
        <ele>1831.4487304688</ele>
        <time>2015-08-27T08:34:29Z</time>
      </trkpt>
      <trkpt lat="42.80664" lon="-0.39722">
        <ele>1831.4487304688</ele>
        <time>2015-08-27T08:34:31Z</time>
      </trkpt>
      <trkpt lat="42.80657" lon="-0.39724">
        <ele>1831.4487304688</ele>
        <time>2015-08-27T08:34:36Z</time>
      </trkpt>
      <trkpt lat="42.80634" lon="-0.39731">
        <ele>1832.41015625</ele>
        <time>2015-08-27T08:34:56Z</time>
      </trkpt>
      <trkpt lat="42.80629" lon="-0.39737">
        <ele>1832.890625</ele>
        <time>2015-08-27T08:35:04Z</time>
      </trkpt>
      <trkpt lat="42.80628" lon="-0.39739">
        <ele>1832.41015625</ele>
        <time>2015-08-27T08:35:06Z</time>
      </trkpt>
      <trkpt lat="42.80614" lon="-0.39754">
        <ele>1833.8520507812</ele>
        <time>2015-08-27T08:35:22Z</time>
      </trkpt>
      <trkpt lat="42.80612" lon="-0.39759">
        <ele>1833.8520507812</ele>
        <time>2015-08-27T08:35:27Z</time>
      </trkpt>
      <trkpt lat="42.80599" lon="-0.3977">
        <ele>1832.890625</ele>
        <time>2015-08-27T08:35:42Z</time>
      </trkpt>
      <trkpt lat="42.80596" lon="-0.39771">
        <ele>1833.8520507812</ele>
        <time>2015-08-27T08:35:44Z</time>
      </trkpt>
      <trkpt lat="42.80587" lon="-0.39779">
        <ele>1832.890625</ele>
        <time>2015-08-27T08:35:55Z</time>
      </trkpt>
      <trkpt lat="42.80583" lon="-0.39784">
        <ele>1832.41015625</ele>
        <time>2015-08-27T08:36:01Z</time>
      </trkpt>
      <trkpt lat="42.80579" lon="-0.39787">
        <ele>1834.3327636719</ele>
        <time>2015-08-27T08:36:07Z</time>
      </trkpt>
      <trkpt lat="42.80576" lon="-0.39787">
        <ele>1833.3713378906</ele>
        <time>2015-08-27T08:36:11Z</time>
      </trkpt>
      <trkpt lat="42.80568" lon="-0.39791">
        <ele>1835.2939453125</ele>
        <time>2015-08-27T08:36:19Z</time>
      </trkpt>
      <trkpt lat="42.80559" lon="-0.39782">
        <ele>1834.8134765625</ele>
        <time>2015-08-27T08:36:29Z</time>
      </trkpt>
      <trkpt lat="42.80541" lon="-0.39773">
        <ele>1836.2556152344</ele>
        <time>2015-08-27T08:36:46Z</time>
      </trkpt>
      <trkpt lat="42.80521" lon="-0.39771">
        <ele>1836.7360839844</ele>
        <time>2015-08-27T08:37:03Z</time>
      </trkpt>
      <trkpt lat="42.805" lon="-0.39771">
        <ele>1838.6589355469</ele>
        <time>2015-08-27T08:37:20Z</time>
      </trkpt>
      <trkpt lat="42.80488" lon="-0.39762">
        <ele>1839.6201171875</ele>
        <time>2015-08-27T08:37:36Z</time>
      </trkpt>
      <trkpt lat="42.80483" lon="-0.39751">
        <ele>1842.0234375</ele>
        <time>2015-08-27T08:37:55Z</time>
      </trkpt>
      <trkpt lat="42.80472" lon="-0.39731">
        <ele>1843.4653320312</ele>
        <time>2015-08-27T08:38:12Z</time>
      </trkpt>
      <trkpt lat="42.80465" lon="-0.39711">
        <ele>1845.3879394531</ele>
        <time>2015-08-27T08:38:30Z</time>
      </trkpt>
      <trkpt lat="42.80455" lon="-0.39691">
        <ele>1847.7912597656</ele>
        <time>2015-08-27T08:38:49Z</time>
      </trkpt>
      <trkpt lat="42.80452" lon="-0.39687">
        <ele>1847.7912597656</ele>
        <time>2015-08-27T08:38:58Z</time>
      </trkpt>
      <trkpt lat="42.80449" lon="-0.39684">
        <ele>1846.3493652344</ele>
        <time>2015-08-27T08:39:01Z</time>
      </trkpt>
      <trkpt lat="42.80439" lon="-0.39678">
        <ele>1849.7138671875</ele>
        <time>2015-08-27T08:39:14Z</time>
      </trkpt>
      <trkpt lat="42.80431" lon="-0.39671">
        <ele>1853.0786132812</ele>
        <time>2015-08-27T08:39:30Z</time>
      </trkpt>
      <trkpt lat="42.80429" lon="-0.3966">
        <ele>1856.4431152344</ele>
        <time>2015-08-27T08:39:43Z</time>
      </trkpt>
      <trkpt lat="42.80428" lon="-0.39656">
        <ele>1856.4431152344</ele>
        <time>2015-08-27T08:39:47Z</time>
      </trkpt>
      <trkpt lat="42.80427" lon="-0.39638">
        <ele>1858.3657226562</ele>
        <time>2015-08-27T08:40:05Z</time>
      </trkpt>
      <trkpt lat="42.80428" lon="-0.39627">
        <ele>1861.73046875</ele>
        <time>2015-08-27T08:40:18Z</time>
      </trkpt>
      <trkpt lat="42.80428" lon="-0.39626">
        <ele>1861.73046875</ele>
        <time>2015-08-27T08:40:19Z</time>
      </trkpt>
      <trkpt lat="42.80433" lon="-0.39619">
        <ele>1865.5756835938</ele>
        <time>2015-08-27T08:40:30Z</time>
      </trkpt>
      <trkpt lat="42.80433" lon="-0.39618">
        <ele>1864.6142578125</ele>
        <time>2015-08-27T08:40:31Z</time>
      </trkpt>
      <trkpt lat="42.80434" lon="-0.396">
        <ele>1866.0561523438</ele>
        <time>2015-08-27T08:40:49Z</time>
      </trkpt>
      <trkpt lat="42.80435" lon="-0.39588">
        <ele>1869.4211425781</ele>
        <time>2015-08-27T08:41:05Z</time>
      </trkpt>
      <trkpt lat="42.80433" lon="-0.39586">
        <ele>1869.9016113281</ele>
        <time>2015-08-27T08:41:24Z</time>
      </trkpt>
      <trkpt lat="42.80433" lon="-0.39585">
        <ele>1869.9016113281</ele>
        <time>2015-08-27T08:41:25Z</time>
      </trkpt>
      <trkpt lat="42.8043" lon="-0.39576">
        <ele>1873.2663574219</ele>
        <time>2015-08-27T08:41:36Z</time>
      </trkpt>
      <trkpt lat="42.80425" lon="-0.39567">
        <ele>1874.7082519531</ele>
        <time>2015-08-27T08:41:50Z</time>
      </trkpt>
      <trkpt lat="42.80421" lon="-0.39556">
        <ele>1872.7856445312</ele>
        <time>2015-08-27T08:42:00Z</time>
      </trkpt>
      <trkpt lat="42.80416" lon="-0.3954">
        <ele>1874.7082519531</ele>
        <time>2015-08-27T08:42:16Z</time>
      </trkpt>
      <trkpt lat="42.80407" lon="-0.39539">
        <ele>1874.2275390625</ele>
        <time>2015-08-27T08:42:28Z</time>
      </trkpt>
      <trkpt lat="42.80397" lon="-0.39535">
        <ele>1876.630859375</ele>
        <time>2015-08-27T08:42:43Z</time>
      </trkpt>
      <trkpt lat="42.80391" lon="-0.39532">
        <ele>1880.4760742188</ele>
        <time>2015-08-27T08:42:52Z</time>
      </trkpt>
      <trkpt lat="42.8039" lon="-0.39532">
        <ele>1879.9953613281</ele>
        <time>2015-08-27T08:42:53Z</time>
      </trkpt>
      <trkpt lat="42.80379" lon="-0.39535">
        <ele>1881.91796875</ele>
        <time>2015-08-27T08:43:10Z</time>
      </trkpt>
      <trkpt lat="42.80372" lon="-0.39537">
        <ele>1883.8405761719</ele>
        <time>2015-08-27T08:43:22Z</time>
      </trkpt>
      <trkpt lat="42.80368" lon="-0.39535">
        <ele>1886.244140625</ele>
        <time>2015-08-27T08:43:45Z</time>
      </trkpt>
      <trkpt lat="42.80366" lon="-0.39534">
        <ele>1887.2053222656</ele>
        <time>2015-08-27T08:43:50Z</time>
      </trkpt>
      <trkpt lat="42.80354" lon="-0.39537">
        <ele>1890.5698242188</ele>
        <time>2015-08-27T08:44:07Z</time>
      </trkpt>
      <trkpt lat="42.80353" lon="-0.39537">
        <ele>1892.0119628906</ele>
        <time>2015-08-27T08:44:10Z</time>
      </trkpt>
      <trkpt lat="42.8035" lon="-0.39535">
        <ele>1892.0119628906</ele>
        <time>2015-08-27T08:44:31Z</time>
      </trkpt>
      <trkpt lat="42.80341" lon="-0.3953">
        <ele>1893.4538574219</ele>
        <time>2015-08-27T08:44:49Z</time>
      </trkpt>
      <trkpt lat="42.80334" lon="-0.39528">
        <ele>1893.9345703125</ele>
        <time>2015-08-27T08:44:57Z</time>
      </trkpt>
      <trkpt lat="42.80321" lon="-0.39518">
        <ele>1892.4926757812</ele>
        <time>2015-08-27T08:45:12Z</time>
      </trkpt>
      <trkpt lat="42.80317" lon="-0.39521">
        <ele>1891.0505371094</ele>
        <time>2015-08-27T08:45:17Z</time>
      </trkpt>
      <trkpt lat="42.80313" lon="-0.39537">
        <ele>1891.0505371094</ele>
        <time>2015-08-27T08:45:32Z</time>
      </trkpt>
      <trkpt lat="42.80307" lon="-0.39547">
        <ele>1890.5698242188</ele>
        <time>2015-08-27T08:45:45Z</time>
      </trkpt>
      <trkpt lat="42.80303" lon="-0.3955">
        <ele>1891.0505371094</ele>
        <time>2015-08-27T08:45:51Z</time>
      </trkpt>
      <trkpt lat="42.80293" lon="-0.39551">
        <ele>1889.6086425781</ele>
        <time>2015-08-27T08:46:02Z</time>
      </trkpt>
      <trkpt lat="42.80281" lon="-0.39561">
        <ele>1889.6086425781</ele>
        <time>2015-08-27T08:46:18Z</time>
      </trkpt>
      <trkpt lat="42.80275" lon="-0.39566">
        <ele>1890.5698242188</ele>
        <time>2015-08-27T08:46:26Z</time>
      </trkpt>
      <trkpt lat="42.8027" lon="-0.3957">
        <ele>1889.6086425781</ele>
        <time>2015-08-27T08:46:41Z</time>
      </trkpt>
      <trkpt lat="42.8026" lon="-0.39579">
        <ele>1888.6474609375</ele>
        <time>2015-08-27T08:46:56Z</time>
      </trkpt>
      <trkpt lat="42.80255" lon="-0.39581">
        <ele>1889.1279296875</ele>
        <time>2015-08-27T08:47:12Z</time>
      </trkpt>
      <trkpt lat="42.80243" lon="-0.39587">
        <ele>1888.6474609375</ele>
        <time>2015-08-27T08:47:34Z</time>
      </trkpt>
      <trkpt lat="42.80232" lon="-0.39597">
        <ele>1888.1667480469</ele>
        <time>2015-08-27T08:47:51Z</time>
      </trkpt>
      <trkpt lat="42.80224" lon="-0.39617">
        <ele>1887.6860351562</ele>
        <time>2015-08-27T08:48:10Z</time>
      </trkpt>
      <trkpt lat="42.80218" lon="-0.3963">
        <ele>1888.1667480469</ele>
        <time>2015-08-27T08:48:28Z</time>
      </trkpt>
      <trkpt lat="42.80212" lon="-0.39629">
        <ele>1887.2053222656</ele>
        <time>2015-08-27T08:48:46Z</time>
      </trkpt>
      <trkpt lat="42.80212" lon="-0.39629">
        <ele>1887.2053222656</ele>
        <time>2015-08-27T08:48:47Z</time>
      </trkpt>
      <trkpt lat="42.80211" lon="-0.39628">
        <ele>1888.1667480469</ele>
        <time>2015-08-27T08:48:48Z</time>
      </trkpt>
      <trkpt lat="42.80197" lon="-0.39636">
        <ele>1887.6860351562</ele>
        <time>2015-08-27T08:49:06Z</time>
      </trkpt>
      <trkpt lat="42.80182" lon="-0.39639">
        <ele>1888.1667480469</ele>
        <time>2015-08-27T08:49:24Z</time>
      </trkpt>
      <trkpt lat="42.80172" lon="-0.39641">
        <ele>1888.1667480469</ele>
        <time>2015-08-27T08:49:37Z</time>
      </trkpt>
      <trkpt lat="42.80156" lon="-0.39639">
        <ele>1889.6086425781</ele>
        <time>2015-08-27T08:49:56Z</time>
      </trkpt>
      <trkpt lat="42.80145" lon="-0.39641">
        <ele>1891.0505371094</ele>
        <time>2015-08-27T08:50:13Z</time>
      </trkpt>
      <trkpt lat="42.80135" lon="-0.39642">
        <ele>1894.4150390625</ele>
        <time>2015-08-27T08:50:26Z</time>
      </trkpt>
      <trkpt lat="42.80123" lon="-0.39648">
        <ele>1895.3764648438</ele>
        <time>2015-08-27T08:50:43Z</time>
      </trkpt>
      <trkpt lat="42.80122" lon="-0.39648">
        <ele>1896.337890625</ele>
        <time>2015-08-27T08:50:46Z</time>
      </trkpt>
      <trkpt lat="42.80121" lon="-0.39648">
        <ele>1897.7797851562</ele>
        <time>2015-08-27T08:50:48Z</time>
      </trkpt>
      <trkpt lat="42.80111" lon="-0.39648">
        <ele>1897.7797851562</ele>
        <time>2015-08-27T08:51:06Z</time>
      </trkpt>
      <trkpt lat="42.801" lon="-0.39642">
        <ele>1900.6638183594</ele>
        <time>2015-08-27T08:51:23Z</time>
      </trkpt>
      <trkpt lat="42.80096" lon="-0.39639">
        <ele>1903.0671386719</ele>
        <time>2015-08-27T08:51:31Z</time>
      </trkpt>
      <trkpt lat="42.80092" lon="-0.39629">
        <ele>1904.5090332031</ele>
        <time>2015-08-27T08:51:46Z</time>
      </trkpt>
      <trkpt lat="42.8009" lon="-0.39622">
        <ele>1907.3930664062</ele>
        <time>2015-08-27T08:51:58Z</time>
      </trkpt>
      <trkpt lat="42.80091" lon="-0.39612">
        <ele>1910.7575683594</ele>
        <time>2015-08-27T08:52:15Z</time>
      </trkpt>
      <trkpt lat="42.80085" lon="-0.39614">
        <ele>1913.6413574219</ele>
        <time>2015-08-27T08:52:31Z</time>
      </trkpt>
      <trkpt lat="42.80081" lon="-0.39603">
        <ele>1916.044921875</ele>
        <time>2015-08-27T08:52:48Z</time>
      </trkpt>
      <trkpt lat="42.8008" lon="-0.39595">
        <ele>1919.4096679688</ele>
        <time>2015-08-27T08:53:02Z</time>
      </trkpt>
      <trkpt lat="42.80086" lon="-0.39585">
        <ele>1921.8127441406</ele>
        <time>2015-08-27T08:53:19Z</time>
      </trkpt>
      <trkpt lat="42.80088" lon="-0.39577">
        <ele>1924.6967773438</ele>
        <time>2015-08-27T08:53:31Z</time>
      </trkpt>
      <trkpt lat="42.80088" lon="-0.39577">
        <ele>1924.2160644531</ele>
        <time>2015-08-27T08:53:53Z</time>
      </trkpt>
      <trkpt lat="42.80087" lon="-0.39575">
        <ele>1922.7741699219</ele>
        <time>2015-08-27T08:54:13Z</time>
      </trkpt>
      <trkpt lat="42.80086" lon="-0.39574">
        <ele>1924.6967773438</ele>
        <time>2015-08-27T08:54:34Z</time>
      </trkpt>
      <trkpt lat="42.8008" lon="-0.39566">
        <ele>1925.1772460938</ele>
        <time>2015-08-27T08:54:59Z</time>
      </trkpt>
      <trkpt lat="42.80075" lon="-0.39562">
        <ele>1928.0612792969</ele>
        <time>2015-08-27T08:55:06Z</time>
      </trkpt>
      <trkpt lat="42.80073" lon="-0.3956">
        <ele>1927.5805664062</ele>
        <time>2015-08-27T08:55:09Z</time>
      </trkpt>
      <trkpt lat="42.80068" lon="-0.39559">
        <ele>1930.4645996094</ele>
        <time>2015-08-27T08:55:15Z</time>
      </trkpt>
      <trkpt lat="42.80067" lon="-0.39559">
        <ele>1930.4645996094</ele>
        <time>2015-08-27T08:55:16Z</time>
      </trkpt>
      <trkpt lat="42.80063" lon="-0.39556">
        <ele>1926.6193847656</ele>
        <time>2015-08-27T08:55:21Z</time>
      </trkpt>
      <trkpt lat="42.80062" lon="-0.39555">
        <ele>1928.5419921875</ele>
        <time>2015-08-27T08:55:22Z</time>
      </trkpt>
      <trkpt lat="42.80051" lon="-0.39543">
        <ele>1927.1000976562</ele>
        <time>2015-08-27T08:55:37Z</time>
      </trkpt>
      <trkpt lat="42.80048" lon="-0.39537">
        <ele>1930.4645996094</ele>
        <time>2015-08-27T08:55:43Z</time>
      </trkpt>
      <trkpt lat="42.80048" lon="-0.39536">
        <ele>1930.9453125</ele>
        <time>2015-08-27T08:55:44Z</time>
      </trkpt>
      <trkpt lat="42.80036" lon="-0.39528">
        <ele>1932.3874511719</ele>
        <time>2015-08-27T08:56:01Z</time>
      </trkpt>
      <trkpt lat="42.80027" lon="-0.3952">
        <ele>1934.3100585938</ele>
        <time>2015-08-27T08:56:18Z</time>
      </trkpt>
      <trkpt lat="42.80023" lon="-0.39516">
        <ele>1936.2326660156</ele>
        <time>2015-08-27T08:56:23Z</time>
      </trkpt>
      <trkpt lat="42.80022" lon="-0.39516">
        <ele>1935.2712402344</ele>
        <time>2015-08-27T08:56:24Z</time>
      </trkpt>
      <trkpt lat="42.80008" lon="-0.39504">
        <ele>1938.6359863281</ele>
        <time>2015-08-27T08:56:42Z</time>
      </trkpt>
      <trkpt lat="42.79997" lon="-0.39497">
        <ele>1939.5971679688</ele>
        <time>2015-08-27T08:56:55Z</time>
      </trkpt>
      <trkpt lat="42.79986" lon="-0.39493">
        <ele>1938.6359863281</ele>
        <time>2015-08-27T08:57:11Z</time>
      </trkpt>
      <trkpt lat="42.79966" lon="-0.3949">
        <ele>1941.5197753906</ele>
        <time>2015-08-27T08:57:30Z</time>
      </trkpt>
      <trkpt lat="42.79962" lon="-0.3949">
        <ele>1940.5583496094</ele>
        <time>2015-08-27T08:57:35Z</time>
      </trkpt>
      <trkpt lat="42.79955" lon="-0.39486">
        <ele>1943.4423828125</ele>
        <time>2015-08-27T08:57:43Z</time>
      </trkpt>
      <trkpt lat="42.79953" lon="-0.39485">
        <ele>1940.0778808594</ele>
        <time>2015-08-27T08:57:45Z</time>
      </trkpt>
      <trkpt lat="42.79952" lon="-0.39485">
        <ele>1940.0778808594</ele>
        <time>2015-08-27T08:57:46Z</time>
      </trkpt>
      <trkpt lat="42.79944" lon="-0.39486">
        <ele>1942.0004882812</ele>
        <time>2015-08-27T08:57:54Z</time>
      </trkpt>
      <trkpt lat="42.79934" lon="-0.39476">
        <ele>1942.4812011719</ele>
        <time>2015-08-27T08:58:10Z</time>
      </trkpt>
      <trkpt lat="42.79933" lon="-0.39476">
        <ele>1943.9230957031</ele>
        <time>2015-08-27T08:58:13Z</time>
      </trkpt>
      <trkpt lat="42.79932" lon="-0.39476">
        <ele>1943.9230957031</ele>
        <time>2015-08-27T08:58:26Z</time>
      </trkpt>
      <trkpt lat="42.79928" lon="-0.39481">
        <ele>1943.4423828125</ele>
        <time>2015-08-27T08:59:04Z</time>
      </trkpt>
      <trkpt lat="42.79927" lon="-0.39482">
        <ele>1944.8842773438</ele>
        <time>2015-08-27T08:59:07Z</time>
      </trkpt>
      <trkpt lat="42.79927" lon="-0.39482">
        <ele>1942.9616699219</ele>
        <time>2015-08-27T08:59:11Z</time>
      </trkpt>
      <trkpt lat="42.79927" lon="-0.39482">
        <ele>1946.3264160156</ele>
        <time>2015-08-27T08:59:13Z</time>
      </trkpt>
      <trkpt lat="42.79927" lon="-0.39482">
        <ele>1945.3649902344</ele>
        <time>2015-08-27T08:59:14Z</time>
      </trkpt>
      <trkpt lat="42.79928" lon="-0.39482">
        <ele>1945.3649902344</ele>
        <time>2015-08-27T08:59:36Z</time>
      </trkpt>
      <trkpt lat="42.79935" lon="-0.39484">
        <ele>1946.3264160156</ele>
        <time>2015-08-27T08:59:46Z</time>
      </trkpt>
      <trkpt lat="42.79949" lon="-0.39489">
        <ele>1944.4035644531</ele>
        <time>2015-08-27T09:00:01Z</time>
      </trkpt>
      <trkpt lat="42.79969" lon="-0.3949">
        <ele>1943.4423828125</ele>
        <time>2015-08-27T09:00:20Z</time>
      </trkpt>
      <trkpt lat="42.79985" lon="-0.39497">
        <ele>1942.9616699219</ele>
        <time>2015-08-27T09:00:36Z</time>
      </trkpt>
      <trkpt lat="42.79998" lon="-0.39502">
        <ele>1940.0778808594</ele>
        <time>2015-08-27T09:00:49Z</time>
      </trkpt>
      <trkpt lat="42.79999" lon="-0.39503">
        <ele>1940.0778808594</ele>
        <time>2015-08-27T09:00:50Z</time>
      </trkpt>
      <trkpt lat="42.80006" lon="-0.39508">
        <ele>1936.7131347656</ele>
        <time>2015-08-27T09:00:58Z</time>
      </trkpt>
      <trkpt lat="42.80023" lon="-0.39525">
        <ele>1937.1938476562</ele>
        <time>2015-08-27T09:01:18Z</time>
      </trkpt>
      <trkpt lat="42.80025" lon="-0.39529">
        <ele>1936.2326660156</ele>
        <time>2015-08-27T09:01:22Z</time>
      </trkpt>
      <trkpt lat="42.80038" lon="-0.39532">
        <ele>1932.3874511719</ele>
        <time>2015-08-27T09:01:36Z</time>
      </trkpt>
      <trkpt lat="42.80046" lon="-0.39536">
        <ele>1930.9453125</ele>
        <time>2015-08-27T09:01:44Z</time>
      </trkpt>
      <trkpt lat="42.8005" lon="-0.39537">
        <ele>1931.42578125</ele>
        <time>2015-08-27T09:01:48Z</time>
      </trkpt>
      <trkpt lat="42.80052" lon="-0.39544">
        <ele>1930.4645996094</ele>
        <time>2015-08-27T09:01:53Z</time>
      </trkpt>
      <trkpt lat="42.8006" lon="-0.39564">
        <ele>1931.9064941406</ele>
        <time>2015-08-27T09:02:08Z</time>
      </trkpt>
      <trkpt lat="42.80077" lon="-0.39567">
        <ele>1929.9838867188</ele>
        <time>2015-08-27T09:02:27Z</time>
      </trkpt>
      <trkpt lat="42.80083" lon="-0.39575">
        <ele>1926.6193847656</ele>
        <time>2015-08-27T09:02:37Z</time>
      </trkpt>
      <trkpt lat="42.80074" lon="-0.39589">
        <ele>1923.7353515625</ele>
        <time>2015-08-27T09:02:54Z</time>
      </trkpt>
      <trkpt lat="42.80075" lon="-0.39595">
        <ele>1920.8515625</ele>
        <time>2015-08-27T09:03:03Z</time>
      </trkpt>
      <trkpt lat="42.80068" lon="-0.39609">
        <ele>1918.4482421875</ele>
        <time>2015-08-27T09:03:20Z</time>
      </trkpt>
      <trkpt lat="42.80068" lon="-0.3961">
        <ele>1917.9675292969</ele>
        <time>2015-08-27T09:03:21Z</time>
      </trkpt>
      <trkpt lat="42.80067" lon="-0.39616">
        <ele>1917.0063476562</ele>
        <time>2015-08-27T09:03:25Z</time>
      </trkpt>
      <trkpt lat="42.8007" lon="-0.39626">
        <ele>1915.5642089844</ele>
        <time>2015-08-27T09:03:40Z</time>
      </trkpt>
      <trkpt lat="42.80075" lon="-0.39627">
        <ele>1913.6413574219</ele>
        <time>2015-08-27T09:03:58Z</time>
      </trkpt>
      <trkpt lat="42.80073" lon="-0.39626">
        <ele>1915.0834960938</ele>
        <time>2015-08-27T09:04:05Z</time>
      </trkpt>
      <trkpt lat="42.80065" lon="-0.3962">
        <ele>1916.5256347656</ele>
        <time>2015-08-27T09:04:22Z</time>
      </trkpt>
      <trkpt lat="42.80053" lon="-0.39608">
        <ele>1917.9675292969</ele>
        <time>2015-08-27T09:04:40Z</time>
      </trkpt>
      <trkpt lat="42.80041" lon="-0.396">
        <ele>1920.8515625</ele>
        <time>2015-08-27T09:04:58Z</time>
      </trkpt>
      <trkpt lat="42.8004" lon="-0.39599">
        <ele>1920.3708496094</ele>
        <time>2015-08-27T09:04:59Z</time>
      </trkpt>
      <trkpt lat="42.80033" lon="-0.39591">
        <ele>1919.4096679688</ele>
        <time>2015-08-27T09:05:10Z</time>
      </trkpt>
      <trkpt lat="42.80026" lon="-0.39588">
        <ele>1919.4096679688</ele>
        <time>2015-08-27T09:05:21Z</time>
      </trkpt>
      <trkpt lat="42.80023" lon="-0.39588">
        <ele>1917.9675292969</ele>
        <time>2015-08-27T09:05:25Z</time>
      </trkpt>
      <trkpt lat="42.8002" lon="-0.39589">
        <ele>1921.33203125</ele>
        <time>2015-08-27T09:05:28Z</time>
      </trkpt>
      <trkpt lat="42.80016" lon="-0.39591">
        <ele>1917.9675292969</ele>
        <time>2015-08-27T09:05:35Z</time>
      </trkpt>
      <trkpt lat="42.80009" lon="-0.39588">
        <ele>1919.4096679688</ele>
        <time>2015-08-27T09:05:55Z</time>
      </trkpt>
      <trkpt lat="42.80008" lon="-0.39587">
        <ele>1919.4096679688</ele>
        <time>2015-08-27T09:06:24Z</time>
      </trkpt>
      <trkpt lat="42.80007" lon="-0.39586">
        <ele>1922.7741699219</ele>
        <time>2015-08-27T09:17:13Z</time>
      </trkpt>
      <trkpt lat="42.80007" lon="-0.39586">
        <ele>1921.8127441406</ele>
        <time>2015-08-27T09:20:07Z</time>
      </trkpt>
      <trkpt lat="42.80007" lon="-0.39586">
        <ele>1924.2160644531</ele>
        <time>2015-08-27T09:21:51Z</time>
      </trkpt>
      <trkpt lat="42.80007" lon="-0.39587">
        <ele>1920.3708496094</ele>
        <time>2015-08-27T09:24:57Z</time>
      </trkpt>
      <trkpt lat="42.80008" lon="-0.39587">
        <ele>1922.7741699219</ele>
        <time>2015-08-27T09:25:10Z</time>
      </trkpt>
      <trkpt lat="42.80007" lon="-0.39587">
        <ele>1923.2548828125</ele>
        <time>2015-08-27T09:25:37Z</time>
      </trkpt>
      <trkpt lat="42.80007" lon="-0.39587">
        <ele>1922.7741699219</ele>
        <time>2015-08-27T09:26:14Z</time>
      </trkpt>
      <trkpt lat="42.80007" lon="-0.39587">
        <ele>1922.2934570312</ele>
        <time>2015-08-27T09:26:36Z</time>
      </trkpt>
      <trkpt lat="42.80007" lon="-0.39587">
        <ele>1924.6967773438</ele>
        <time>2015-08-27T09:27:53Z</time>
      </trkpt>
      <trkpt lat="42.80007" lon="-0.39587">
        <ele>1922.2934570312</ele>
        <time>2015-08-27T09:27:56Z</time>
      </trkpt>
      <trkpt lat="42.80008" lon="-0.39586">
        <ele>1921.33203125</ele>
        <time>2015-08-27T09:30:57Z</time>
      </trkpt>
      <trkpt lat="42.80008" lon="-0.39587">
        <ele>1923.7353515625</ele>
        <time>2015-08-27T09:36:38Z</time>
      </trkpt>
      <trkpt lat="42.80008" lon="-0.39587">
        <ele>1922.2934570312</ele>
        <time>2015-08-27T09:36:40Z</time>
      </trkpt>
      <trkpt lat="42.80008" lon="-0.39587">
        <ele>1922.2934570312</ele>
        <time>2015-08-27T09:36:50Z</time>
      </trkpt>
      <trkpt lat="42.80008" lon="-0.39587">
        <ele>1922.2934570312</ele>
        <time>2015-08-27T09:37:24Z</time>
      </trkpt>
      <trkpt lat="42.80006" lon="-0.39589">
        <ele>1922.7741699219</ele>
        <time>2015-08-27T09:48:16Z</time>
      </trkpt>
      <trkpt lat="42.80005" lon="-0.39592">
        <ele>1922.7741699219</ele>
        <time>2015-08-27T09:53:04Z</time>
      </trkpt>
      <trkpt lat="42.80005" lon="-0.39586">
        <ele>1922.2934570312</ele>
        <time>2015-08-27T09:55:27Z</time>
      </trkpt>
      <trkpt lat="42.80007" lon="-0.39588">
        <ele>1925.6579589844</ele>
        <time>2015-08-27T09:55:40Z</time>
      </trkpt>
      <trkpt lat="42.80007" lon="-0.39588">
        <ele>1925.1772460938</ele>
        <time>2015-08-27T09:55:41Z</time>
      </trkpt>
      <trkpt lat="42.80007" lon="-0.39589">
        <ele>1921.33203125</ele>
        <time>2015-08-27T09:56:01Z</time>
      </trkpt>
      <trkpt lat="42.80006" lon="-0.39588">
        <ele>1924.2160644531</ele>
        <time>2015-08-27T09:56:36Z</time>
      </trkpt>
      <trkpt lat="42.80006" lon="-0.39589">
        <ele>1924.2160644531</ele>
        <time>2015-08-27T09:56:46Z</time>
      </trkpt>
      <trkpt lat="42.80008" lon="-0.39586">
        <ele>1922.7741699219</ele>
        <time>2015-08-27T09:59:13Z</time>
      </trkpt>
      <trkpt lat="42.80008" lon="-0.39589">
        <ele>1923.2548828125</ele>
        <time>2015-08-27T10:00:05Z</time>
      </trkpt>
      <trkpt lat="42.80008" lon="-0.39588">
        <ele>1924.2160644531</ele>
        <time>2015-08-27T10:01:34Z</time>
      </trkpt>
      <trkpt lat="42.80009" lon="-0.39587">
        <ele>1924.2160644531</ele>
        <time>2015-08-27T10:02:04Z</time>
      </trkpt>
      <trkpt lat="42.80008" lon="-0.39589">
        <ele>1923.2548828125</ele>
        <time>2015-08-27T10:02:39Z</time>
      </trkpt>
      <trkpt lat="42.80008" lon="-0.39588">
        <ele>1925.1772460938</ele>
        <time>2015-08-27T10:02:42Z</time>
      </trkpt>
      <trkpt lat="42.80008" lon="-0.39586">
        <ele>1921.8127441406</ele>
        <time>2015-08-27T10:03:17Z</time>
      </trkpt>
      <trkpt lat="42.80008" lon="-0.39586">
        <ele>1924.2160644531</ele>
        <time>2015-08-27T10:03:26Z</time>
      </trkpt>
      <trkpt lat="42.80008" lon="-0.39586">
        <ele>1921.8127441406</ele>
        <time>2015-08-27T10:03:28Z</time>
      </trkpt>
      <trkpt lat="42.80008" lon="-0.39586">
        <ele>1925.1772460938</ele>
        <time>2015-08-27T10:03:34Z</time>
      </trkpt>
      <trkpt lat="42.80008" lon="-0.39586">
        <ele>1918.9289550781</ele>
        <time>2015-08-27T10:03:35Z</time>
      </trkpt>
      <trkpt lat="42.80008" lon="-0.39586">
        <ele>1919.8901367188</ele>
        <time>2015-08-27T10:03:36Z</time>
      </trkpt>
      <trkpt lat="42.80008" lon="-0.39586">
        <ele>1925.1772460938</ele>
        <time>2015-08-27T10:03:37Z</time>
      </trkpt>
      <trkpt lat="42.80009" lon="-0.39586">
        <ele>1918.4482421875</ele>
        <time>2015-08-27T10:03:39Z</time>
      </trkpt>
      <trkpt lat="42.80009" lon="-0.39586">
        <ele>1923.2548828125</ele>
        <time>2015-08-27T10:03:40Z</time>
      </trkpt>
      <trkpt lat="42.80009" lon="-0.39586">
        <ele>1928.5419921875</ele>
        <time>2015-08-27T10:03:41Z</time>
      </trkpt>
      <trkpt lat="42.80009" lon="-0.39586">
        <ele>1928.5419921875</ele>
        <time>2015-08-27T10:03:42Z</time>
      </trkpt>
      <trkpt lat="42.80009" lon="-0.39586">
        <ele>1920.3708496094</ele>
        <time>2015-08-27T10:03:43Z</time>
      </trkpt>
      <trkpt lat="42.80009" lon="-0.39586">
        <ele>1920.3708496094</ele>
        <time>2015-08-27T10:03:44Z</time>
      </trkpt>
      <trkpt lat="42.8001" lon="-0.39586">
        <ele>1925.1772460938</ele>
        <time>2015-08-27T10:03:46Z</time>
      </trkpt>
      <trkpt lat="42.8001" lon="-0.39586">
        <ele>1923.7353515625</ele>
        <time>2015-08-27T10:03:49Z</time>
      </trkpt>
      <trkpt lat="42.80008" lon="-0.39589">
        <ele>1926.138671875</ele>
        <time>2015-08-27T10:04:06Z</time>
      </trkpt>
      <trkpt lat="42.80008" lon="-0.39591">
        <ele>1926.6193847656</ele>
        <time>2015-08-27T10:04:38Z</time>
      </trkpt>
      <trkpt lat="42.8001" lon="-0.39592">
        <ele>1925.1772460938</ele>
        <time>2015-08-27T10:04:40Z</time>
      </trkpt>
      <trkpt lat="42.80015" lon="-0.39594">
        <ele>1926.6193847656</ele>
        <time>2015-08-27T10:04:46Z</time>
      </trkpt>
      <trkpt lat="42.80029" lon="-0.39594">
        <ele>1924.6967773438</ele>
        <time>2015-08-27T10:05:05Z</time>
      </trkpt>
      <trkpt lat="42.8003" lon="-0.39596">
        <ele>1923.7353515625</ele>
        <time>2015-08-27T10:05:07Z</time>
      </trkpt>
      <trkpt lat="42.80033" lon="-0.39599">
        <ele>1927.1000976562</ele>
        <time>2015-08-27T10:05:12Z</time>
      </trkpt>
      <trkpt lat="42.80048" lon="-0.3961">
        <ele>1927.1000976562</ele>
        <time>2015-08-27T10:05:32Z</time>
      </trkpt>
      <trkpt lat="42.80064" lon="-0.39616">
        <ele>1924.2160644531</ele>
        <time>2015-08-27T10:05:50Z</time>
      </trkpt>
      <trkpt lat="42.80069" lon="-0.3962">
        <ele>1921.8127441406</ele>
        <time>2015-08-27T10:05:58Z</time>
      </trkpt>
      <trkpt lat="42.80076" lon="-0.39627">
        <ele>1921.33203125</ele>
        <time>2015-08-27T10:06:12Z</time>
      </trkpt>
      <trkpt lat="42.80082" lon="-0.3963">
        <ele>1918.4482421875</ele>
        <time>2015-08-27T10:06:24Z</time>
      </trkpt>
      <trkpt lat="42.80086" lon="-0.39631">
        <ele>1915.5642089844</ele>
        <time>2015-08-27T10:06:38Z</time>
      </trkpt>
      <trkpt lat="42.80091" lon="-0.39638">
        <ele>1912.1994628906</ele>
        <time>2015-08-27T10:06:54Z</time>
      </trkpt>
      <trkpt lat="42.80098" lon="-0.39646">
        <ele>1908.8349609375</ele>
        <time>2015-08-27T10:07:10Z</time>
      </trkpt>
      <trkpt lat="42.80103" lon="-0.39658">
        <ele>1905.4704589844</ele>
        <time>2015-08-27T10:07:23Z</time>
      </trkpt>
      <trkpt lat="42.80102" lon="-0.39675">
        <ele>1902.5864257812</ele>
        <time>2015-08-27T10:07:41Z</time>
      </trkpt>
      <trkpt lat="42.80106" lon="-0.3968">
        <ele>1899.2216796875</ele>
        <time>2015-08-27T10:07:50Z</time>
      </trkpt>
      <trkpt lat="42.80116" lon="-0.3968">
        <ele>1896.818359375</ele>
        <time>2015-08-27T10:08:07Z</time>
      </trkpt>
      <trkpt lat="42.80125" lon="-0.39676">
        <ele>1894.8957519531</ele>
        <time>2015-08-27T10:08:18Z</time>
      </trkpt>
      <trkpt lat="42.80139" lon="-0.39672">
        <ele>1892.9731445312</ele>
        <time>2015-08-27T10:08:34Z</time>
      </trkpt>
      <trkpt lat="42.80144" lon="-0.39671">
        <ele>1892.4926757812</ele>
        <time>2015-08-27T10:08:39Z</time>
      </trkpt>
      <trkpt lat="42.80152" lon="-0.39669">
        <ele>1891.53125</ele>
        <time>2015-08-27T10:08:48Z</time>
      </trkpt>
      <trkpt lat="42.80154" lon="-0.39669">
        <ele>1890.5698242188</ele>
        <time>2015-08-27T10:09:03Z</time>
      </trkpt>
      <trkpt lat="42.80153" lon="-0.39677">
        <ele>1887.2053222656</ele>
        <time>2015-08-27T10:09:14Z</time>
      </trkpt>
      <trkpt lat="42.80152" lon="-0.39683">
        <ele>1885.7634277344</ele>
        <time>2015-08-27T10:09:20Z</time>
      </trkpt>
      <trkpt lat="42.80154" lon="-0.39697">
        <ele>1883.8405761719</ele>
        <time>2015-08-27T10:09:37Z</time>
      </trkpt>
      <trkpt lat="42.80166" lon="-0.39702">
        <ele>1880.4760742188</ele>
        <time>2015-08-27T10:09:53Z</time>
      </trkpt>
      <trkpt lat="42.80169" lon="-0.39707">
        <ele>1879.0339355469</ele>
        <time>2015-08-27T10:10:00Z</time>
      </trkpt>
      <trkpt lat="42.80178" lon="-0.39711">
        <ele>1875.6694335938</ele>
        <time>2015-08-27T10:10:11Z</time>
      </trkpt>
      <trkpt lat="42.80186" lon="-0.39718">
        <ele>1875.1887207031</ele>
        <time>2015-08-27T10:10:22Z</time>
      </trkpt>
      <trkpt lat="42.80205" lon="-0.39743">
        <ele>1875.1887207031</ele>
        <time>2015-08-27T10:10:45Z</time>
      </trkpt>
      <trkpt lat="42.8022" lon="-0.39749">
        <ele>1874.2275390625</ele>
        <time>2015-08-27T10:11:04Z</time>
      </trkpt>
      <trkpt lat="42.80231" lon="-0.3975">
        <ele>1871.82421875</ele>
        <time>2015-08-27T10:11:18Z</time>
      </trkpt>
      <trkpt lat="42.80247" lon="-0.39755">
        <ele>1869.9016113281</ele>
        <time>2015-08-27T10:11:36Z</time>
      </trkpt>
      <trkpt lat="42.80264" lon="-0.3976">
        <ele>1868.9404296875</ele>
        <time>2015-08-27T10:11:54Z</time>
      </trkpt>
      <trkpt lat="42.80278" lon="-0.39766">
        <ele>1867.9787597656</ele>
        <time>2015-08-27T10:12:10Z</time>
      </trkpt>
      <trkpt lat="42.80281" lon="-0.39767">
        <ele>1867.498046875</ele>
        <time>2015-08-27T10:12:13Z</time>
      </trkpt>
      <trkpt lat="42.80296" lon="-0.39768">
        <ele>1863.6528320312</ele>
        <time>2015-08-27T10:12:27Z</time>
      </trkpt>
      <trkpt lat="42.80302" lon="-0.39766">
        <ele>1862.6916503906</ele>
        <time>2015-08-27T10:12:34Z</time>
      </trkpt>
      <trkpt lat="42.80304" lon="-0.39765">
        <ele>1861.73046875</ele>
        <time>2015-08-27T10:12:36Z</time>
      </trkpt>
      <trkpt lat="42.80325" lon="-0.39762">
        <ele>1860.2883300781</ele>
        <time>2015-08-27T10:12:54Z</time>
      </trkpt>
      <trkpt lat="42.80347" lon="-0.39757">
        <ele>1859.8076171875</ele>
        <time>2015-08-27T10:13:14Z</time>
      </trkpt>
      <trkpt lat="42.80366" lon="-0.39754">
        <ele>1860.2883300781</ele>
        <time>2015-08-27T10:13:32Z</time>
      </trkpt>
      <trkpt lat="42.80385" lon="-0.39754">
        <ele>1859.8076171875</ele>
        <time>2015-08-27T10:13:50Z</time>
      </trkpt>
      <trkpt lat="42.80403" lon="-0.39761">
        <ele>1858.8464355469</ele>
        <time>2015-08-27T10:14:06Z</time>
      </trkpt>
      <trkpt lat="42.80423" lon="-0.39772">
        <ele>1856.4431152344</ele>
        <time>2015-08-27T10:14:24Z</time>
      </trkpt>
      <trkpt lat="42.80441" lon="-0.39777">
        <ele>1856.923828125</ele>
        <time>2015-08-27T10:14:41Z</time>
      </trkpt>
      <trkpt lat="42.80446" lon="-0.39779">
        <ele>1855.9624023438</ele>
        <time>2015-08-27T10:14:46Z</time>
      </trkpt>
      <trkpt lat="42.80471" lon="-0.39783">
        <ele>1855.0012207031</ele>
        <time>2015-08-27T10:15:07Z</time>
      </trkpt>
      <trkpt lat="42.80493" lon="-0.39772">
        <ele>1854.5205078125</ele>
        <time>2015-08-27T10:15:27Z</time>
      </trkpt>
      <trkpt lat="42.80514" lon="-0.39774">
        <ele>1852.5979003906</ele>
        <time>2015-08-27T10:15:44Z</time>
      </trkpt>
      <trkpt lat="42.80521" lon="-0.39781">
        <ele>1851.1557617188</ele>
        <time>2015-08-27T10:15:57Z</time>
      </trkpt>
      <trkpt lat="42.80542" lon="-0.39777">
        <ele>1851.6364746094</ele>
        <time>2015-08-27T10:16:15Z</time>
      </trkpt>
      <trkpt lat="42.80557" lon="-0.39786">
        <ele>1852.1171875</ele>
        <time>2015-08-27T10:16:34Z</time>
      </trkpt>
      <trkpt lat="42.80569" lon="-0.39791">
        <ele>1851.6364746094</ele>
        <time>2015-08-27T10:16:49Z</time>
      </trkpt>
      <trkpt lat="42.80585" lon="-0.39786">
        <ele>1851.6364746094</ele>
        <time>2015-08-27T10:17:05Z</time>
      </trkpt>
      <trkpt lat="42.8059" lon="-0.39782">
        <ele>1851.6364746094</ele>
        <time>2015-08-27T10:17:11Z</time>
      </trkpt>
      <trkpt lat="42.80591" lon="-0.39778">
        <ele>1851.1557617188</ele>
        <time>2015-08-27T10:17:14Z</time>
      </trkpt>
      <trkpt lat="42.80596" lon="-0.39772">
        <ele>1850.6750488281</ele>
        <time>2015-08-27T10:17:21Z</time>
      </trkpt>
      <trkpt lat="42.8061" lon="-0.3976">
        <ele>1850.1945800781</ele>
        <time>2015-08-27T10:17:36Z</time>
      </trkpt>
      <trkpt lat="42.80619" lon="-0.39748">
        <ele>1851.1557617188</ele>
        <time>2015-08-27T10:17:50Z</time>
      </trkpt>
      <trkpt lat="42.80631" lon="-0.39736">
        <ele>1849.7138671875</ele>
        <time>2015-08-27T10:18:07Z</time>
      </trkpt>
      <trkpt lat="42.80644" lon="-0.39731">
        <ele>1849.2331542969</ele>
        <time>2015-08-27T10:18:21Z</time>
      </trkpt>
      <trkpt lat="42.80663" lon="-0.39724">
        <ele>1848.7524414062</ele>
        <time>2015-08-27T10:18:40Z</time>
      </trkpt>
      <trkpt lat="42.80675" lon="-0.39724">
        <ele>1847.7912597656</ele>
        <time>2015-08-27T10:18:53Z</time>
      </trkpt>
      <trkpt lat="42.80696" lon="-0.39741">
        <ele>1846.8298339844</ele>
        <time>2015-08-27T10:19:15Z</time>
      </trkpt>
      <trkpt lat="42.80702" lon="-0.39745">
        <ele>1846.3493652344</ele>
        <time>2015-08-27T10:19:20Z</time>
      </trkpt>
      <trkpt lat="42.8072" lon="-0.39767">
        <ele>1844.9072265625</ele>
        <time>2015-08-27T10:19:41Z</time>
      </trkpt>
      <trkpt lat="42.80721" lon="-0.39767">
        <ele>1845.3879394531</ele>
        <time>2015-08-27T10:19:42Z</time>
      </trkpt>
      <trkpt lat="42.80739" lon="-0.39762">
        <ele>1843.9460449219</ele>
        <time>2015-08-27T10:19:58Z</time>
      </trkpt>
      <trkpt lat="42.80758" lon="-0.39751">
        <ele>1843.4653320312</ele>
        <time>2015-08-27T10:20:17Z</time>
      </trkpt>
      <trkpt lat="42.80764" lon="-0.39748">
        <ele>1842.9846191406</ele>
        <time>2015-08-27T10:20:23Z</time>
      </trkpt>
      <trkpt lat="42.80785" lon="-0.39742">
        <ele>1842.0234375</ele>
        <time>2015-08-27T10:20:42Z</time>
      </trkpt>
      <trkpt lat="42.80804" lon="-0.39743">
        <ele>1842.5041503906</ele>
        <time>2015-08-27T10:20:58Z</time>
      </trkpt>
      <trkpt lat="42.80809" lon="-0.39744">
        <ele>1842.0234375</ele>
        <time>2015-08-27T10:21:02Z</time>
      </trkpt>
      <trkpt lat="42.80814" lon="-0.39747">
        <ele>1840.1008300781</ele>
        <time>2015-08-27T10:21:08Z</time>
      </trkpt>
      <trkpt lat="42.80821" lon="-0.39745">
        <ele>1840.5812988281</ele>
        <time>2015-08-27T10:21:15Z</time>
      </trkpt>
      <trkpt lat="42.8084" lon="-0.39751">
        <ele>1840.5812988281</ele>
        <time>2015-08-27T10:21:34Z</time>
      </trkpt>
      <trkpt lat="42.80847" lon="-0.39752">
        <ele>1840.5812988281</ele>
        <time>2015-08-27T10:21:52Z</time>
      </trkpt>
      <trkpt lat="42.80848" lon="-0.39751">
        <ele>1840.1008300781</ele>
        <time>2015-08-27T10:21:54Z</time>
      </trkpt>
      <trkpt lat="42.8086" lon="-0.39742">
        <ele>1838.6589355469</ele>
        <time>2015-08-27T10:22:08Z</time>
      </trkpt>
      <trkpt lat="42.8088" lon="-0.39751">
        <ele>1838.6589355469</ele>
        <time>2015-08-27T10:22:28Z</time>
      </trkpt>
      <trkpt lat="42.80905" lon="-0.39762">
        <ele>1838.1782226562</ele>
        <time>2015-08-27T10:22:50Z</time>
      </trkpt>
      <trkpt lat="42.80929" lon="-0.39767">
        <ele>1838.6589355469</ele>
        <time>2015-08-27T10:23:11Z</time>
      </trkpt>
      <trkpt lat="42.80933" lon="-0.39769">
        <ele>1837.216796875</ele>
        <time>2015-08-27T10:23:15Z</time>
      </trkpt>
      <trkpt lat="42.80952" lon="-0.39776">
        <ele>1837.216796875</ele>
        <time>2015-08-27T10:23:35Z</time>
      </trkpt>
      <trkpt lat="42.80963" lon="-0.39783">
        <ele>1836.7360839844</ele>
        <time>2015-08-27T10:23:46Z</time>
      </trkpt>
      <trkpt lat="42.80975" lon="-0.3978">
        <ele>1835.7746582031</ele>
        <time>2015-08-27T10:23:57Z</time>
      </trkpt>
      <trkpt lat="42.80979" lon="-0.39782">
        <ele>1835.7746582031</ele>
        <time>2015-08-27T10:24:01Z</time>
      </trkpt>
      <trkpt lat="42.80985" lon="-0.39785">
        <ele>1835.7746582031</ele>
        <time>2015-08-27T10:24:07Z</time>
      </trkpt>
      <trkpt lat="42.81004" lon="-0.39784">
        <ele>1835.2939453125</ele>
        <time>2015-08-27T10:24:26Z</time>
      </trkpt>
      <trkpt lat="42.81025" lon="-0.39786">
        <ele>1833.8520507812</ele>
        <time>2015-08-27T10:24:46Z</time>
      </trkpt>
      <trkpt lat="42.81045" lon="-0.39788">
        <ele>1832.41015625</ele>
        <time>2015-08-27T10:25:05Z</time>
      </trkpt>
      <trkpt lat="42.8105" lon="-0.39786">
        <ele>1832.41015625</ele>
        <time>2015-08-27T10:25:10Z</time>
      </trkpt>
      <trkpt lat="42.8106" lon="-0.39785">
        <ele>1832.41015625</ele>
        <time>2015-08-27T10:25:20Z</time>
      </trkpt>
      <trkpt lat="42.81083" lon="-0.39779">
        <ele>1830.4875488281</ele>
        <time>2015-08-27T10:25:40Z</time>
      </trkpt>
      <trkpt lat="42.81098" lon="-0.39778">
        <ele>1830.0068359375</ele>
        <time>2015-08-27T10:25:56Z</time>
      </trkpt>
      <trkpt lat="42.81109" lon="-0.39775">
        <ele>1828.5649414062</ele>
        <time>2015-08-27T10:26:09Z</time>
      </trkpt>
      <trkpt lat="42.8111" lon="-0.39775">
        <ele>1828.5649414062</ele>
        <time>2015-08-27T10:26:10Z</time>
      </trkpt>
      <trkpt lat="42.81121" lon="-0.39775">
        <ele>1830.0068359375</ele>
        <time>2015-08-27T10:26:24Z</time>
      </trkpt>
      <trkpt lat="42.81131" lon="-0.39774">
        <ele>1827.603515625</ele>
        <time>2015-08-27T10:26:34Z</time>
      </trkpt>
      <trkpt lat="42.81147" lon="-0.39773">
        <ele>1827.603515625</ele>
        <time>2015-08-27T10:26:50Z</time>
      </trkpt>
      <trkpt lat="42.81153" lon="-0.39775">
        <ele>1828.5649414062</ele>
        <time>2015-08-27T10:26:56Z</time>
      </trkpt>
      <trkpt lat="42.81166" lon="-0.39776">
        <ele>1827.603515625</ele>
        <time>2015-08-27T10:27:09Z</time>
      </trkpt>
      <trkpt lat="42.81172" lon="-0.39778">
        <ele>1827.123046875</ele>
        <time>2015-08-27T10:27:15Z</time>
      </trkpt>
      <trkpt lat="42.81183" lon="-0.39779">
        <ele>1827.603515625</ele>
        <time>2015-08-27T10:27:27Z</time>
      </trkpt>
      <trkpt lat="42.81196" lon="-0.39776">
        <ele>1826.6423339844</ele>
        <time>2015-08-27T10:27:42Z</time>
      </trkpt>
      <trkpt lat="42.81207" lon="-0.39771">
        <ele>1825.6809082031</ele>
        <time>2015-08-27T10:27:56Z</time>
      </trkpt>
      <trkpt lat="42.81223" lon="-0.39767">
        <ele>1822.31640625</ele>
        <time>2015-08-27T10:28:13Z</time>
      </trkpt>
      <trkpt lat="42.81225" lon="-0.39766">
        <ele>1822.7971191406</ele>
        <time>2015-08-27T10:28:15Z</time>
      </trkpt>
      <trkpt lat="42.81233" lon="-0.39766">
        <ele>1821.8356933594</ele>
        <time>2015-08-27T10:28:22Z</time>
      </trkpt>
      <trkpt lat="42.81246" lon="-0.39764">
        <ele>1822.31640625</ele>
        <time>2015-08-27T10:28:33Z</time>
      </trkpt>
      <trkpt lat="42.81265" lon="-0.39764">
        <ele>1819.9128417969</ele>
        <time>2015-08-27T10:28:50Z</time>
      </trkpt>
      <trkpt lat="42.81283" lon="-0.39762">
        <ele>1817.990234375</ele>
        <time>2015-08-27T10:29:07Z</time>
      </trkpt>
      <trkpt lat="42.81298" lon="-0.39761">
        <ele>1814.6257324219</ele>
        <time>2015-08-27T10:29:22Z</time>
      </trkpt>
      <trkpt lat="42.81319" lon="-0.39759">
        <ele>1816.5483398438</ele>
        <time>2015-08-27T10:29:40Z</time>
      </trkpt>
      <trkpt lat="42.8132" lon="-0.3976">
        <ele>1817.0290527344</ele>
        <time>2015-08-27T10:29:41Z</time>
      </trkpt>
      <trkpt lat="42.81339" lon="-0.39755">
        <ele>1817.0290527344</ele>
        <time>2015-08-27T10:29:59Z</time>
      </trkpt>
      <trkpt lat="42.81344" lon="-0.39754">
        <ele>1816.0676269531</ele>
        <time>2015-08-27T10:30:03Z</time>
      </trkpt>
      <trkpt lat="42.81359" lon="-0.39749">
        <ele>1815.1064453125</ele>
        <time>2015-08-27T10:30:22Z</time>
      </trkpt>
      <trkpt lat="42.81362" lon="-0.39752">
        <ele>1814.6257324219</ele>
        <time>2015-08-27T10:30:29Z</time>
      </trkpt>
      <trkpt lat="42.81369" lon="-0.39754">
        <ele>1812.703125</ele>
        <time>2015-08-27T10:30:38Z</time>
      </trkpt>
      <trkpt lat="42.81372" lon="-0.39759">
        <ele>1811.7419433594</ele>
        <time>2015-08-27T10:30:42Z</time>
      </trkpt>
      <trkpt lat="42.81378" lon="-0.39762">
        <ele>1810.7805175781</ele>
        <time>2015-08-27T10:30:50Z</time>
      </trkpt>
      <trkpt lat="42.81393" lon="-0.39758">
        <ele>1809.3386230469</ele>
        <time>2015-08-27T10:31:09Z</time>
      </trkpt>
      <trkpt lat="42.81404" lon="-0.39755">
        <ele>1807.8967285156</ele>
        <time>2015-08-27T10:31:29Z</time>
      </trkpt>
      <trkpt lat="42.81423" lon="-0.39739">
        <ele>1806.9353027344</ele>
        <time>2015-08-27T10:31:48Z</time>
      </trkpt>
      <trkpt lat="42.81434" lon="-0.39724">
        <ele>1805.9738769531</ele>
        <time>2015-08-27T10:32:05Z</time>
      </trkpt>
      <trkpt lat="42.8144" lon="-0.39718">
        <ele>1805.0126953125</ele>
        <time>2015-08-27T10:32:13Z</time>
      </trkpt>
      <trkpt lat="42.81452" lon="-0.39713">
        <ele>1805.0126953125</ele>
        <time>2015-08-27T10:32:29Z</time>
      </trkpt>
      <trkpt lat="42.81462" lon="-0.39708">
        <ele>1804.0515136719</ele>
        <time>2015-08-27T10:32:39Z</time>
      </trkpt>
      <trkpt lat="42.81481" lon="-0.39708">
        <ele>1801.1672363281</ele>
        <time>2015-08-27T10:32:59Z</time>
      </trkpt>
      <trkpt lat="42.8149" lon="-0.39705">
        <ele>1800.2060546875</ele>
        <time>2015-08-27T10:33:08Z</time>
      </trkpt>
      <trkpt lat="42.81491" lon="-0.39703">
        <ele>1801.6479492188</ele>
        <time>2015-08-27T10:33:10Z</time>
      </trkpt>
      <trkpt lat="42.81508" lon="-0.39689">
        <ele>1802.6091308594</ele>
        <time>2015-08-27T10:33:29Z</time>
      </trkpt>
      <trkpt lat="42.81523" lon="-0.39681">
        <ele>1800.2060546875</ele>
        <time>2015-08-27T10:33:45Z</time>
      </trkpt>
      <trkpt lat="42.81545" lon="-0.39686">
        <ele>1798.7639160156</ele>
        <time>2015-08-27T10:34:05Z</time>
      </trkpt>
      <trkpt lat="42.81559" lon="-0.39688">
        <ele>1798.283203125</ele>
        <time>2015-08-27T10:34:20Z</time>
      </trkpt>
      <trkpt lat="42.81575" lon="-0.39674">
        <ele>1794.9187011719</ele>
        <time>2015-08-27T10:34:39Z</time>
      </trkpt>
      <trkpt lat="42.81586" lon="-0.39663">
        <ele>1792.99609375</ele>
        <time>2015-08-27T10:34:55Z</time>
      </trkpt>
      <trkpt lat="42.81587" lon="-0.39663">
        <ele>1792.99609375</ele>
        <time>2015-08-27T10:34:56Z</time>
      </trkpt>
      <trkpt lat="42.81599" lon="-0.39653">
        <ele>1793.4768066406</ele>
        <time>2015-08-27T10:35:09Z</time>
      </trkpt>
      <trkpt lat="42.81602" lon="-0.39648">
        <ele>1793.4768066406</ele>
        <time>2015-08-27T10:35:15Z</time>
      </trkpt>
      <trkpt lat="42.81613" lon="-0.39637">
        <ele>1793.9575195312</ele>
        <time>2015-08-27T10:35:31Z</time>
      </trkpt>
      <trkpt lat="42.81616" lon="-0.39635">
        <ele>1793.4768066406</ele>
        <time>2015-08-27T10:35:34Z</time>
      </trkpt>
      <trkpt lat="42.81634" lon="-0.39637">
        <ele>1792.515625</ele>
        <time>2015-08-27T10:35:52Z</time>
      </trkpt>
      <trkpt lat="42.81649" lon="-0.39629">
        <ele>1792.515625</ele>
        <time>2015-08-27T10:36:10Z</time>
      </trkpt>
      <trkpt lat="42.81649" lon="-0.39627">
        <ele>1791.5541992188</ele>
        <time>2015-08-27T10:36:12Z</time>
      </trkpt>
      <trkpt lat="42.81659" lon="-0.39612">
        <ele>1789.6315917969</ele>
        <time>2015-08-27T10:36:30Z</time>
      </trkpt>
      <trkpt lat="42.81663" lon="-0.3961">
        <ele>1788.1896972656</ele>
        <time>2015-08-27T10:36:44Z</time>
      </trkpt>
      <trkpt lat="42.81664" lon="-0.3962">
        <ele>1786.7473144531</ele>
        <time>2015-08-27T10:37:17Z</time>
      </trkpt>
      <trkpt lat="42.81664" lon="-0.39623">
        <ele>1786.2668457031</ele>
        <time>2015-08-27T10:37:23Z</time>
      </trkpt>
      <trkpt lat="42.81673" lon="-0.39627">
        <ele>1783.3828125</ele>
        <time>2015-08-27T10:37:40Z</time>
      </trkpt>
      <trkpt lat="42.81678" lon="-0.39618">
        <ele>1780.0183105469</ele>
        <time>2015-08-27T10:37:54Z</time>
      </trkpt>
      <trkpt lat="42.81678" lon="-0.39616">
        <ele>1779.5375976562</ele>
        <time>2015-08-27T10:37:56Z</time>
      </trkpt>
      <trkpt lat="42.81681" lon="-0.39602">
        <ele>1777.6149902344</ele>
        <time>2015-08-27T10:38:12Z</time>
      </trkpt>
      <trkpt lat="42.81689" lon="-0.3959">
        <ele>1775.2116699219</ele>
        <time>2015-08-27T10:38:28Z</time>
      </trkpt>
      <trkpt lat="42.81703" lon="-0.39572">
        <ele>1772.3278808594</ele>
        <time>2015-08-27T10:38:45Z</time>
      </trkpt>
      <trkpt lat="42.81704" lon="-0.39571">
        <ele>1772.3278808594</ele>
        <time>2015-08-27T10:38:46Z</time>
      </trkpt>
      <trkpt lat="42.81713" lon="-0.39559">
        <ele>1770.8857421875</ele>
        <time>2015-08-27T10:39:04Z</time>
      </trkpt>
      <trkpt lat="42.81715" lon="-0.39558">
        <ele>1771.3662109375</ele>
        <time>2015-08-27T10:39:08Z</time>
      </trkpt>
      <trkpt lat="42.81722" lon="-0.39558">
        <ele>1768.482421875</ele>
        <time>2015-08-27T10:39:21Z</time>
      </trkpt>
      <trkpt lat="42.81724" lon="-0.39558">
        <ele>1768.482421875</ele>
        <time>2015-08-27T10:39:23Z</time>
      </trkpt>
      <trkpt lat="42.81741" lon="-0.3955">
        <ele>1766.0791015625</ele>
        <time>2015-08-27T10:39:41Z</time>
      </trkpt>
      <trkpt lat="42.8175" lon="-0.39544">
        <ele>1762.7145996094</ele>
        <time>2015-08-27T10:39:52Z</time>
      </trkpt>
      <trkpt lat="42.81754" lon="-0.39548">
        <ele>1761.7534179688</ele>
        <time>2015-08-27T10:39:58Z</time>
      </trkpt>
      <trkpt lat="42.81761" lon="-0.39554">
        <ele>1759.3500976562</ele>
        <time>2015-08-27T10:40:06Z</time>
      </trkpt>
      <trkpt lat="42.81765" lon="-0.3956">
        <ele>1757.4274902344</ele>
        <time>2015-08-27T10:40:14Z</time>
      </trkpt>
      <trkpt lat="42.8177" lon="-0.39561">
        <ele>1754.5432128906</ele>
        <time>2015-08-27T10:40:20Z</time>
      </trkpt>
      <trkpt lat="42.81771" lon="-0.39561">
        <ele>1754.5432128906</ele>
        <time>2015-08-27T10:40:21Z</time>
      </trkpt>
      <trkpt lat="42.81774" lon="-0.39563">
        <ele>1753.58203125</ele>
        <time>2015-08-27T10:40:26Z</time>
      </trkpt>
      <trkpt lat="42.81777" lon="-0.39557">
        <ele>1751.6594238281</ele>
        <time>2015-08-27T10:40:31Z</time>
      </trkpt>
      <trkpt lat="42.81782" lon="-0.39545">
        <ele>1749.7368164062</ele>
        <time>2015-08-27T10:40:40Z</time>
      </trkpt>
      <trkpt lat="42.81783" lon="-0.3954">
        <ele>1748.775390625</ele>
        <time>2015-08-27T10:40:44Z</time>
      </trkpt>
      <trkpt lat="42.81787" lon="-0.3954">
        <ele>1748.2946777344</ele>
        <time>2015-08-27T10:40:48Z</time>
      </trkpt>
      <trkpt lat="42.81801" lon="-0.39522">
        <ele>1744.4494628906</ele>
        <time>2015-08-27T10:41:05Z</time>
      </trkpt>
      <trkpt lat="42.81806" lon="-0.39519">
        <ele>1743.0075683594</ele>
        <time>2015-08-27T10:41:10Z</time>
      </trkpt>
      <trkpt lat="42.81807" lon="-0.3952">
        <ele>1742.0463867188</ele>
        <time>2015-08-27T10:41:17Z</time>
      </trkpt>
      <trkpt lat="42.81801" lon="-0.39534">
        <ele>1739.6428222656</ele>
        <time>2015-08-27T10:41:27Z</time>
      </trkpt>
      <trkpt lat="42.81802" lon="-0.39538">
        <ele>1739.162109375</ele>
        <time>2015-08-27T10:41:30Z</time>
      </trkpt>
      <trkpt lat="42.81815" lon="-0.39524">
        <ele>1736.2783203125</ele>
        <time>2015-08-27T10:41:45Z</time>
      </trkpt>
      <trkpt lat="42.81817" lon="-0.39522">
        <ele>1735.7976074219</ele>
        <time>2015-08-27T10:41:47Z</time>
      </trkpt>
      <trkpt lat="42.81829" lon="-0.39513">
        <ele>1732.9135742188</ele>
        <time>2015-08-27T10:42:02Z</time>
      </trkpt>
      <trkpt lat="42.81832" lon="-0.3951">
        <ele>1730.9912109375</ele>
        <time>2015-08-27T10:42:06Z</time>
      </trkpt>
      <trkpt lat="42.81836" lon="-0.39506">
        <ele>1730.5104980469</ele>
        <time>2015-08-27T10:42:12Z</time>
      </trkpt>
      <trkpt lat="42.81839" lon="-0.395">
        <ele>1729.068359375</ele>
        <time>2015-08-27T10:42:17Z</time>
      </trkpt>
      <trkpt lat="42.81839" lon="-0.3948">
        <ele>1728.1071777344</ele>
        <time>2015-08-27T10:42:34Z</time>
      </trkpt>
      <trkpt lat="42.8184" lon="-0.39473">
        <ele>1727.6264648438</ele>
        <time>2015-08-27T10:42:40Z</time>
      </trkpt>
      <trkpt lat="42.81846" lon="-0.39455">
        <ele>1723.7810058594</ele>
        <time>2015-08-27T10:42:57Z</time>
      </trkpt>
      <trkpt lat="42.81855" lon="-0.39455">
        <ele>1721.8583984375</ele>
        <time>2015-08-27T10:43:13Z</time>
      </trkpt>
      <trkpt lat="42.81854" lon="-0.3946">
        <ele>1721.3776855469</ele>
        <time>2015-08-27T10:43:18Z</time>
      </trkpt>
      <trkpt lat="42.81854" lon="-0.39473">
        <ele>1719.4553222656</ele>
        <time>2015-08-27T10:43:31Z</time>
      </trkpt>
      <trkpt lat="42.81856" lon="-0.3947">
        <ele>1718.4938964844</ele>
        <time>2015-08-27T10:43:35Z</time>
      </trkpt>
      <trkpt lat="42.81862" lon="-0.39463">
        <ele>1714.6486816406</ele>
        <time>2015-08-27T10:43:49Z</time>
      </trkpt>
      <trkpt lat="42.81862" lon="-0.3947">
        <ele>1713.2067871094</ele>
        <time>2015-08-27T10:43:55Z</time>
      </trkpt>
      <trkpt lat="42.81865" lon="-0.39478">
        <ele>1710.8034667969</ele>
        <time>2015-08-27T10:44:09Z</time>
      </trkpt>
      <trkpt lat="42.81866" lon="-0.39475">
        <ele>1710.3227539062</ele>
        <time>2015-08-27T10:44:12Z</time>
      </trkpt>
      <trkpt lat="42.8187" lon="-0.39463">
        <ele>1708.4001464844</ele>
        <time>2015-08-27T10:44:22Z</time>
      </trkpt>
      <trkpt lat="42.81874" lon="-0.39451">
        <ele>1705.5161132812</ele>
        <time>2015-08-27T10:44:38Z</time>
      </trkpt>
      <trkpt lat="42.81876" lon="-0.39457">
        <ele>1705.0354003906</ele>
        <time>2015-08-27T10:44:44Z</time>
      </trkpt>
      <trkpt lat="42.8188" lon="-0.39469">
        <ele>1702.6320800781</ele>
        <time>2015-08-27T10:44:54Z</time>
      </trkpt>
      <trkpt lat="42.81884" lon="-0.39467">
        <ele>1700.7094726562</ele>
        <time>2015-08-27T10:45:07Z</time>
      </trkpt>
      <trkpt lat="42.81885" lon="-0.39481">
        <ele>1697.8256835938</ele>
        <time>2015-08-27T10:45:18Z</time>
      </trkpt>
      <trkpt lat="42.81883" lon="-0.39495">
        <ele>1694.4609375</ele>
        <time>2015-08-27T10:45:34Z</time>
      </trkpt>
      <trkpt lat="42.81883" lon="-0.39496">
        <ele>1693.98046875</ele>
        <time>2015-08-27T10:45:35Z</time>
      </trkpt>
      <trkpt lat="42.81882" lon="-0.39506">
        <ele>1690.1350097656</ele>
        <time>2015-08-27T10:45:44Z</time>
      </trkpt>
      <trkpt lat="42.81876" lon="-0.39525">
        <ele>1687.7316894531</ele>
        <time>2015-08-27T10:46:03Z</time>
      </trkpt>
      <trkpt lat="42.81884" lon="-0.39521">
        <ele>1684.8479003906</ele>
        <time>2015-08-27T10:46:18Z</time>
      </trkpt>
      <trkpt lat="42.81888" lon="-0.39518">
        <ele>1683.8864746094</ele>
        <time>2015-08-27T10:46:24Z</time>
      </trkpt>
      <trkpt lat="42.81893" lon="-0.39513">
        <ele>1682.4445800781</ele>
        <time>2015-08-27T10:46:32Z</time>
      </trkpt>
      <trkpt lat="42.81907" lon="-0.39501">
        <ele>1680.0412597656</ele>
        <time>2015-08-27T10:46:48Z</time>
      </trkpt>
      <trkpt lat="42.81912" lon="-0.39501">
        <ele>1677.1574707031</ele>
        <time>2015-08-27T10:47:02Z</time>
      </trkpt>
      <trkpt lat="42.81909" lon="-0.39519">
        <ele>1674.2731933594</ele>
        <time>2015-08-27T10:47:17Z</time>
      </trkpt>
      <trkpt lat="42.81905" lon="-0.39539">
        <ele>1669.947265625</ele>
        <time>2015-08-27T10:47:32Z</time>
      </trkpt>
      <trkpt lat="42.81904" lon="-0.39541">
        <ele>1669.947265625</ele>
        <time>2015-08-27T10:47:33Z</time>
      </trkpt>
      <trkpt lat="42.81905" lon="-0.39549">
        <ele>1666.5827636719</ele>
        <time>2015-08-27T10:47:43Z</time>
      </trkpt>
      <trkpt lat="42.8191" lon="-0.39546">
        <ele>1666.1020507812</ele>
        <time>2015-08-27T10:47:49Z</time>
      </trkpt>
      <trkpt lat="42.8192" lon="-0.39542">
        <ele>1663.6987304688</ele>
        <time>2015-08-27T10:48:02Z</time>
      </trkpt>
      <trkpt lat="42.81925" lon="-0.39542">
        <ele>1660.8149414062</ele>
        <time>2015-08-27T10:48:12Z</time>
      </trkpt>
      <trkpt lat="42.81935" lon="-0.39536">
        <ele>1657.4501953125</ele>
        <time>2015-08-27T10:48:25Z</time>
      </trkpt>
      <trkpt lat="42.81944" lon="-0.39531">
        <ele>1654.5661621094</ele>
        <time>2015-08-27T10:48:36Z</time>
      </trkpt>
      <trkpt lat="42.81954" lon="-0.39523">
        <ele>1651.2016601562</ele>
        <time>2015-08-27T10:48:47Z</time>
      </trkpt>
      <trkpt lat="42.81957" lon="-0.39519">
        <ele>1650.2404785156</ele>
        <time>2015-08-27T10:48:51Z</time>
      </trkpt>
      <trkpt lat="42.81966" lon="-0.39515">
        <ele>1646.8757324219</ele>
        <time>2015-08-27T10:49:02Z</time>
      </trkpt>
      <trkpt lat="42.81966" lon="-0.39516">
        <ele>1646.8757324219</ele>
        <time>2015-08-27T10:49:03Z</time>
      </trkpt>
      <trkpt lat="42.81963" lon="-0.39529">
        <ele>1645.9145507812</ele>
        <time>2015-08-27T10:49:12Z</time>
      </trkpt>
      <trkpt lat="42.8196" lon="-0.39554">
        <ele>1643.5109863281</ele>
        <time>2015-08-27T10:49:30Z</time>
      </trkpt>
      <trkpt lat="42.81962" lon="-0.39566">
        <ele>1640.146484375</ele>
        <time>2015-08-27T10:49:44Z</time>
      </trkpt>
      <trkpt lat="42.8196" lon="-0.3958">
        <ele>1638.2238769531</ele>
        <time>2015-08-27T10:50:00Z</time>
      </trkpt>
      <trkpt lat="42.81956" lon="-0.39591">
        <ele>1634.859375</ele>
        <time>2015-08-27T10:50:11Z</time>
      </trkpt>
      <trkpt lat="42.81956" lon="-0.39592">
        <ele>1635.33984375</ele>
        <time>2015-08-27T10:50:12Z</time>
      </trkpt>
      <trkpt lat="42.81951" lon="-0.3961">
        <ele>1632.4560546875</ele>
        <time>2015-08-27T10:50:29Z</time>
      </trkpt>
      <trkpt lat="42.81952" lon="-0.39617">
        <ele>1631.4946289062</ele>
        <time>2015-08-27T10:50:35Z</time>
      </trkpt>
      <trkpt lat="42.81952" lon="-0.39622">
        <ele>1630.052734375</ele>
        <time>2015-08-27T10:50:39Z</time>
      </trkpt>
      <trkpt lat="42.81948" lon="-0.39641">
        <ele>1627.1687011719</ele>
        <time>2015-08-27T10:50:55Z</time>
      </trkpt>
      <trkpt lat="42.81944" lon="-0.39652">
        <ele>1626.2072753906</ele>
        <time>2015-08-27T10:51:12Z</time>
      </trkpt>
      <trkpt lat="42.81937" lon="-0.39671">
        <ele>1623.8039550781</ele>
        <time>2015-08-27T10:51:30Z</time>
      </trkpt>
      <trkpt lat="42.81935" lon="-0.39676">
        <ele>1623.8039550781</ele>
        <time>2015-08-27T10:51:34Z</time>
      </trkpt>
      <trkpt lat="42.81928" lon="-0.39691">
        <ele>1620.9201660156</ele>
        <time>2015-08-27T10:51:49Z</time>
      </trkpt>
      <trkpt lat="42.81927" lon="-0.39705">
        <ele>1618.0361328125</ele>
        <time>2015-08-27T10:51:59Z</time>
      </trkpt>
      <trkpt lat="42.81925" lon="-0.3972">
        <ele>1616.1135253906</ele>
        <time>2015-08-27T10:52:12Z</time>
      </trkpt>
      <trkpt lat="42.8192" lon="-0.39742">
        <ele>1614.1909179688</ele>
        <time>2015-08-27T10:52:27Z</time>
      </trkpt>
      <trkpt lat="42.81915" lon="-0.39767">
        <ele>1612.7490234375</ele>
        <time>2015-08-27T10:52:43Z</time>
      </trkpt>
      <trkpt lat="42.81914" lon="-0.39773">
        <ele>1612.7490234375</ele>
        <time>2015-08-27T10:53:21Z</time>
      </trkpt>
      <trkpt lat="42.81913" lon="-0.39774">
        <ele>1610.3454589844</ele>
        <time>2015-08-27T10:53:43Z</time>
      </trkpt>
      <trkpt lat="42.81914" lon="-0.39774">
        <ele>1609.8647460938</ele>
        <time>2015-08-27T10:54:37Z</time>
      </trkpt>
      <trkpt lat="42.81916" lon="-0.39768">
        <ele>1608.4228515625</ele>
        <time>2015-08-27T10:55:52Z</time>
      </trkpt>
      <trkpt lat="42.81908" lon="-0.39789">
        <ele>1606.5002441406</ele>
        <time>2015-08-27T10:56:29Z</time>
      </trkpt>
      <trkpt lat="42.81897" lon="-0.39808">
        <ele>1605.5390625</ele>
        <time>2015-08-27T10:56:50Z</time>
      </trkpt>
      <trkpt lat="42.81891" lon="-0.39821">
        <ele>1604.0971679688</ele>
        <time>2015-08-27T10:57:05Z</time>
      </trkpt>
      <trkpt lat="42.81884" lon="-0.39835">
        <ele>1602.1743164062</ele>
        <time>2015-08-27T10:57:21Z</time>
      </trkpt>
      <trkpt lat="42.81873" lon="-0.39852">
        <ele>1601.2131347656</ele>
        <time>2015-08-27T10:57:38Z</time>
      </trkpt>
      <trkpt lat="42.81858" lon="-0.3987">
        <ele>1602.6550292969</ele>
        <time>2015-08-27T10:57:59Z</time>
      </trkpt>
      <trkpt lat="42.81854" lon="-0.39875">
        <ele>1602.6550292969</ele>
        <time>2015-08-27T10:58:04Z</time>
      </trkpt>
      <trkpt lat="42.81849" lon="-0.39878">
        <ele>1604.0971679688</ele>
        <time>2015-08-27T10:58:19Z</time>
      </trkpt>
      <trkpt lat="42.8185" lon="-0.39879">
        <ele>1604.0971679688</ele>
        <time>2015-08-27T10:58:25Z</time>
      </trkpt>
    </trkseg>
  </trk>
</gpx>